<?xml version="1.0" encoding="UTF-8" standalone="no" ?>
<gpx xmlns="http://www.topografix.com/GPX/1/1" xmlns:xsi="http://www.w3.org/2001/XMLSchema-instance" xsi:schemaLocation="http://www.topografix.com/GPX/1/1 http://www.topografix.com/GPX/1/1/gpx.xsd" version="1.1" creator="VisuGPX - https://www.visugpx.com">
  <metadata>
    <name>Lac du Moulinet sud</name>
    <desc><![CDATA[2019-05 - Lac du Moulinet sud

[b]album[/b] : [url]https://photos.app.goo.gl/5iZSMh7Gh66EZ4v29[/url]
[img]https://blogger.googleusercontent.com/img/b/R29vZ2xl/AVvXsEjxm-OgxszzBkcNYlqgBeavfHgQ2KNJbuHUVrQFjonUZHXdmlGuGehtC01rigDZxEmy_j28wEaNgM-hZR9yiagCB3YEFeFFOGWRKsG_e8m1l2UfxbkhQUPB6smfxw89SDvUR3U6BPMmAClURGQJ9JPCiXgiIYAS4ZYA76TM1nUYXBHCoSo4kApLu4XJkVFN/s600/aubrac.JPG[/img]
[b]Idées de randonnées dans la même région[/b]
Parcours : [url]https://www.visugpx.com/membres/24856/montagne/massif-central/[/url]
Photos : [url]https://jcvertygo.blogspot.com/p/massif-central.html[/url]]]></desc>
  </metadata>
  <trk>
    <name><![CDATA[SityTrail - moulinet sud]]></name>
    <extensions>
      <line xmlns="http://www.topografix.com/GPX/gpx_style/0/2">
        <color>0000FF</color>
        <width>4</width>
      </line>
    </extensions>
    <trkseg>
      <trkpt lat="44.63746" lon="3.23237">
        <ele>1089</ele>
        <time>2019-05-30T12:52:22.883Z</time>
      </trkpt>
      <trkpt lat="44.6376" lon="3.23247">
        <ele>1089</ele>
        <time>2019-05-30T12:52:23.077Z</time>
      </trkpt>
      <trkpt lat="44.63774" lon="3.23252">
        <ele>1087</ele>
        <time>2019-05-30T12:52:27.335Z</time>
      </trkpt>
      <trkpt lat="44.63775" lon="3.23253">
        <ele>1087</ele>
        <time>2019-05-30T12:52:32.320Z</time>
      </trkpt>
      <trkpt lat="44.63777" lon="3.23252">
        <ele>1087</ele>
        <time>2019-05-30T12:52:36.326Z</time>
      </trkpt>
      <trkpt lat="44.63784" lon="3.23251">
        <ele>1087</ele>
        <time>2019-05-30T12:52:40.360Z</time>
      </trkpt>
      <trkpt lat="44.63788" lon="3.23249">
        <ele>1087</ele>
        <time>2019-05-30T12:52:45.336Z</time>
      </trkpt>
      <trkpt lat="44.63791" lon="3.23246">
        <ele>1087</ele>
        <time>2019-05-30T12:52:50.325Z</time>
      </trkpt>
      <trkpt lat="44.63795" lon="3.23244">
        <ele>1087</ele>
        <time>2019-05-30T12:52:55.329Z</time>
      </trkpt>
      <trkpt lat="44.638" lon="3.23243">
        <ele>1087</ele>
        <time>2019-05-30T12:53:00.318Z</time>
      </trkpt>
      <trkpt lat="44.63801" lon="3.23243">
        <ele>1087</ele>
        <time>2019-05-30T12:53:04.350Z</time>
      </trkpt>
      <trkpt lat="44.63805" lon="3.2324">
        <ele>1087</ele>
        <time>2019-05-30T12:53:09.350Z</time>
      </trkpt>
      <trkpt lat="44.63809" lon="3.23238">
        <ele>1087</ele>
        <time>2019-05-30T12:53:14.338Z</time>
      </trkpt>
      <trkpt lat="44.63812" lon="3.23236">
        <ele>1087</ele>
        <time>2019-05-30T12:53:18.343Z</time>
      </trkpt>
      <trkpt lat="44.63818" lon="3.23233">
        <ele>1087</ele>
        <time>2019-05-30T12:53:23.344Z</time>
      </trkpt>
      <trkpt lat="44.63822" lon="3.23232">
        <ele>1087</ele>
        <time>2019-05-30T12:53:28.364Z</time>
      </trkpt>
      <trkpt lat="44.63826" lon="3.23232">
        <ele>1087</ele>
        <time>2019-05-30T12:53:33.368Z</time>
      </trkpt>
      <trkpt lat="44.63828" lon="3.23229">
        <ele>1087</ele>
        <time>2019-05-30T12:53:43.345Z</time>
      </trkpt>
      <trkpt lat="44.63833" lon="3.23225">
        <ele>1087</ele>
        <time>2019-05-30T12:53:48.340Z</time>
      </trkpt>
      <trkpt lat="44.63836" lon="3.23224">
        <ele>1087</ele>
        <time>2019-05-30T12:53:52.353Z</time>
      </trkpt>
      <trkpt lat="44.63837" lon="3.23224">
        <ele>1087</ele>
        <time>2019-05-30T12:53:57.336Z</time>
      </trkpt>
      <trkpt lat="44.63843" lon="3.23225">
        <ele>1087</ele>
        <time>2019-05-30T12:54:02.341Z</time>
      </trkpt>
      <trkpt lat="44.63845" lon="3.23226">
        <ele>1087</ele>
        <time>2019-05-30T12:54:07.343Z</time>
      </trkpt>
      <trkpt lat="44.63852" lon="3.23225">
        <ele>1086</ele>
        <time>2019-05-30T12:54:12.349Z</time>
      </trkpt>
      <trkpt lat="44.63856" lon="3.23223">
        <ele>1086</ele>
        <time>2019-05-30T12:54:17.355Z</time>
      </trkpt>
      <trkpt lat="44.63863" lon="3.23223">
        <ele>1086</ele>
        <time>2019-05-30T12:54:22.339Z</time>
      </trkpt>
      <trkpt lat="44.63866" lon="3.23223">
        <ele>1086</ele>
        <time>2019-05-30T12:54:27.338Z</time>
      </trkpt>
      <trkpt lat="44.63869" lon="3.2322">
        <ele>1086</ele>
        <time>2019-05-30T12:54:31.355Z</time>
      </trkpt>
      <trkpt lat="44.63872" lon="3.2322">
        <ele>1086</ele>
        <time>2019-05-30T12:54:36.338Z</time>
      </trkpt>
      <trkpt lat="44.63876" lon="3.23219">
        <ele>1084</ele>
        <time>2019-05-30T12:54:40.344Z</time>
      </trkpt>
      <trkpt lat="44.63881" lon="3.23218">
        <ele>1084</ele>
        <time>2019-05-30T12:54:45.342Z</time>
      </trkpt>
      <trkpt lat="44.63885" lon="3.23218">
        <ele>1084</ele>
        <time>2019-05-30T12:54:50.327Z</time>
      </trkpt>
      <trkpt lat="44.63892" lon="3.23212">
        <ele>1084</ele>
        <time>2019-05-30T12:54:55.337Z</time>
      </trkpt>
      <trkpt lat="44.63897" lon="3.23212">
        <ele>1084</ele>
        <time>2019-05-30T12:55:00.353Z</time>
      </trkpt>
      <trkpt lat="44.63902" lon="3.23214">
        <ele>1084</ele>
        <time>2019-05-30T12:55:05.322Z</time>
      </trkpt>
      <trkpt lat="44.63904" lon="3.23213">
        <ele>1084</ele>
        <time>2019-05-30T12:55:10.322Z</time>
      </trkpt>
      <trkpt lat="44.63909" lon="3.23211">
        <ele>1084</ele>
        <time>2019-05-30T12:55:14.317Z</time>
      </trkpt>
      <trkpt lat="44.63913" lon="3.23205">
        <ele>1085</ele>
        <time>2019-05-30T12:55:19.341Z</time>
      </trkpt>
      <trkpt lat="44.63918" lon="3.23205">
        <ele>1085</ele>
        <time>2019-05-30T12:55:23.351Z</time>
      </trkpt>
      <trkpt lat="44.63923" lon="3.23205">
        <ele>1085</ele>
        <time>2019-05-30T12:55:28.350Z</time>
      </trkpt>
      <trkpt lat="44.63928" lon="3.23203">
        <ele>1085</ele>
        <time>2019-05-30T12:55:33.339Z</time>
      </trkpt>
      <trkpt lat="44.63938" lon="3.23203">
        <ele>1085</ele>
        <time>2019-05-30T12:55:52.343Z</time>
      </trkpt>
      <trkpt lat="44.63944" lon="3.23202">
        <ele>1085</ele>
        <time>2019-05-30T12:55:57.344Z</time>
      </trkpt>
      <trkpt lat="44.63949" lon="3.23204">
        <ele>1085</ele>
        <time>2019-05-30T12:56:01.377Z</time>
      </trkpt>
      <trkpt lat="44.63953" lon="3.23203">
        <ele>1085</ele>
        <time>2019-05-30T12:56:06.341Z</time>
      </trkpt>
      <trkpt lat="44.63955" lon="3.23202">
        <ele>1085</ele>
        <time>2019-05-30T12:56:11.349Z</time>
      </trkpt>
      <trkpt lat="44.63959" lon="3.23199">
        <ele>1083</ele>
        <time>2019-05-30T12:56:16.344Z</time>
      </trkpt>
      <trkpt lat="44.63964" lon="3.23197">
        <ele>1083</ele>
        <time>2019-05-30T12:56:21.339Z</time>
      </trkpt>
      <trkpt lat="44.63969" lon="3.23196">
        <ele>1083</ele>
        <time>2019-05-30T12:56:26.339Z</time>
      </trkpt>
      <trkpt lat="44.63972" lon="3.23194">
        <ele>1083</ele>
        <time>2019-05-30T12:56:30.355Z</time>
      </trkpt>
      <trkpt lat="44.63977" lon="3.23193">
        <ele>1083</ele>
        <time>2019-05-30T12:56:35.343Z</time>
      </trkpt>
      <trkpt lat="44.63983" lon="3.23194">
        <ele>1083</ele>
        <time>2019-05-30T12:56:40.344Z</time>
      </trkpt>
      <trkpt lat="44.63986" lon="3.23195">
        <ele>1083</ele>
        <time>2019-05-30T12:56:44.344Z</time>
      </trkpt>
      <trkpt lat="44.63989" lon="3.23191">
        <ele>1080</ele>
        <time>2019-05-30T12:56:49.345Z</time>
      </trkpt>
      <trkpt lat="44.63993" lon="3.23188">
        <ele>1080</ele>
        <time>2019-05-30T12:56:53.352Z</time>
      </trkpt>
      <trkpt lat="44.63997" lon="3.23186">
        <ele>1080</ele>
        <time>2019-05-30T12:56:58.339Z</time>
      </trkpt>
      <trkpt lat="44.64001" lon="3.23187">
        <ele>1080</ele>
        <time>2019-05-30T12:57:03.358Z</time>
      </trkpt>
      <trkpt lat="44.64004" lon="3.23184">
        <ele>1080</ele>
        <time>2019-05-30T12:57:08.345Z</time>
      </trkpt>
      <trkpt lat="44.64006" lon="3.23183">
        <ele>1080</ele>
        <time>2019-05-30T12:57:13.349Z</time>
      </trkpt>
      <trkpt lat="44.6401" lon="3.23184">
        <ele>1080</ele>
        <time>2019-05-30T12:57:18.332Z</time>
      </trkpt>
      <trkpt lat="44.64012" lon="3.23185">
        <ele>1080</ele>
        <time>2019-05-30T12:57:22.340Z</time>
      </trkpt>
      <trkpt lat="44.64015" lon="3.23184">
        <ele>1080</ele>
        <time>2019-05-30T12:57:27.338Z</time>
      </trkpt>
      <trkpt lat="44.64021" lon="3.23184">
        <ele>1080</ele>
        <time>2019-05-30T12:57:32.368Z</time>
      </trkpt>
      <trkpt lat="44.64026" lon="3.23184">
        <ele>1080</ele>
        <time>2019-05-30T12:57:37.346Z</time>
      </trkpt>
      <trkpt lat="44.6403" lon="3.23185">
        <ele>1080</ele>
        <time>2019-05-30T12:57:42.365Z</time>
      </trkpt>
      <trkpt lat="44.64036" lon="3.23186">
        <ele>1080</ele>
        <time>2019-05-30T12:57:47.344Z</time>
      </trkpt>
      <trkpt lat="44.6404" lon="3.23184">
        <ele>1080</ele>
        <time>2019-05-30T12:57:52.358Z</time>
      </trkpt>
      <trkpt lat="44.64043" lon="3.23183">
        <ele>1079</ele>
        <time>2019-05-30T12:57:56.370Z</time>
      </trkpt>
      <trkpt lat="44.64047" lon="3.23182">
        <ele>1079</ele>
        <time>2019-05-30T12:58:01.358Z</time>
      </trkpt>
      <trkpt lat="44.64049" lon="3.2318">
        <ele>1078</ele>
        <time>2019-05-30T12:58:06.337Z</time>
      </trkpt>
      <trkpt lat="44.64053" lon="3.23179">
        <ele>1078</ele>
        <time>2019-05-30T12:58:15.341Z</time>
      </trkpt>
      <trkpt lat="44.64058" lon="3.23178">
        <ele>1078</ele>
        <time>2019-05-30T12:58:25.386Z</time>
      </trkpt>
      <trkpt lat="44.64065" lon="3.23177">
        <ele>1078</ele>
        <time>2019-05-30T12:58:30.344Z</time>
      </trkpt>
      <trkpt lat="44.64069" lon="3.23179">
        <ele>1078</ele>
        <time>2019-05-30T12:58:35.349Z</time>
      </trkpt>
      <trkpt lat="44.64072" lon="3.2318">
        <ele>1076</ele>
        <time>2019-05-30T12:58:39.370Z</time>
      </trkpt>
      <trkpt lat="44.64076" lon="3.23182">
        <ele>1076</ele>
        <time>2019-05-30T12:58:44.365Z</time>
      </trkpt>
      <trkpt lat="44.64082" lon="3.23185">
        <ele>1076</ele>
        <time>2019-05-30T12:58:49.351Z</time>
      </trkpt>
      <trkpt lat="44.64084" lon="3.23182">
        <ele>1076</ele>
        <time>2019-05-30T12:58:53.351Z</time>
      </trkpt>
      <trkpt lat="44.64082" lon="3.23171">
        <ele>1076</ele>
        <time>2019-05-30T12:58:58.339Z</time>
      </trkpt>
      <trkpt lat="44.64081" lon="3.23165">
        <ele>1076</ele>
        <time>2019-05-30T12:59:03.339Z</time>
      </trkpt>
      <trkpt lat="44.6408" lon="3.23159">
        <ele>1076</ele>
        <time>2019-05-30T12:59:08.344Z</time>
      </trkpt>
      <trkpt lat="44.64083" lon="3.23156">
        <ele>1076</ele>
        <time>2019-05-30T12:59:13.341Z</time>
      </trkpt>
      <trkpt lat="44.64084" lon="3.23153">
        <ele>1075</ele>
        <time>2019-05-30T12:59:17.350Z</time>
      </trkpt>
      <trkpt lat="44.64091" lon="3.23138">
        <ele>1075</ele>
        <time>2019-05-30T13:01:11.338Z</time>
      </trkpt>
      <trkpt lat="44.64093" lon="3.23137">
        <ele>1075</ele>
        <time>2019-05-30T13:01:15.372Z</time>
      </trkpt>
      <trkpt lat="44.64094" lon="3.23136">
        <ele>1075</ele>
        <time>2019-05-30T13:01:20.345Z</time>
      </trkpt>
      <trkpt lat="44.64097" lon="3.23129">
        <ele>1074</ele>
        <time>2019-05-30T13:01:25.342Z</time>
      </trkpt>
      <trkpt lat="44.64099" lon="3.23127">
        <ele>1074</ele>
        <time>2019-05-30T13:01:29.340Z</time>
      </trkpt>
      <trkpt lat="44.64103" lon="3.23127">
        <ele>1074</ele>
        <time>2019-05-30T13:01:39.338Z</time>
      </trkpt>
      <trkpt lat="44.64107" lon="3.23122">
        <ele>1074</ele>
        <time>2019-05-30T13:01:44.345Z</time>
      </trkpt>
      <trkpt lat="44.64106" lon="3.23119">
        <ele>1074</ele>
        <time>2019-05-30T13:01:48.369Z</time>
      </trkpt>
      <trkpt lat="44.64106" lon="3.23117">
        <ele>1074</ele>
        <time>2019-05-30T13:02:35.349Z</time>
      </trkpt>
      <trkpt lat="44.64108" lon="3.23114">
        <ele>1074</ele>
        <time>2019-05-30T13:02:40.336Z</time>
      </trkpt>
      <trkpt lat="44.64108" lon="3.23111">
        <ele>1074</ele>
        <time>2019-05-30T13:02:44.397Z</time>
      </trkpt>
      <trkpt lat="44.64108" lon="3.23109">
        <ele>1074</ele>
        <time>2019-05-30T13:02:49.338Z</time>
      </trkpt>
      <trkpt lat="44.64109" lon="3.23108">
        <ele>1074</ele>
        <time>2019-05-30T13:03:12.322Z</time>
      </trkpt>
      <trkpt lat="44.64111" lon="3.23098">
        <ele>1074</ele>
        <time>2019-05-30T13:03:17.366Z</time>
      </trkpt>
      <trkpt lat="44.64107" lon="3.2309">
        <ele>1074</ele>
        <time>2019-05-30T13:03:22.324Z</time>
      </trkpt>
      <trkpt lat="44.64107" lon="3.23086">
        <ele>1074</ele>
        <time>2019-05-30T13:03:26.340Z</time>
      </trkpt>
      <trkpt lat="44.64107" lon="3.23082">
        <ele>1074</ele>
        <time>2019-05-30T13:03:31.371Z</time>
      </trkpt>
      <trkpt lat="44.64107" lon="3.23078">
        <ele>1074</ele>
        <time>2019-05-30T13:03:36.334Z</time>
      </trkpt>
      <trkpt lat="44.64107" lon="3.23074">
        <ele>1074</ele>
        <time>2019-05-30T13:03:40.354Z</time>
      </trkpt>
      <trkpt lat="44.64108" lon="3.23068">
        <ele>1075</ele>
        <time>2019-05-30T13:03:45.340Z</time>
      </trkpt>
      <trkpt lat="44.6411" lon="3.23063">
        <ele>1075</ele>
        <time>2019-05-30T13:03:49.371Z</time>
      </trkpt>
      <trkpt lat="44.64112" lon="3.23057">
        <ele>1075</ele>
        <time>2019-05-30T13:03:54.339Z</time>
      </trkpt>
      <trkpt lat="44.64112" lon="3.23051">
        <ele>1075</ele>
        <time>2019-05-30T13:03:59.342Z</time>
      </trkpt>
      <trkpt lat="44.64115" lon="3.23046">
        <ele>1075</ele>
        <time>2019-05-30T13:04:04.355Z</time>
      </trkpt>
      <trkpt lat="44.64119" lon="3.23041">
        <ele>1076</ele>
        <time>2019-05-30T13:04:09.342Z</time>
      </trkpt>
      <trkpt lat="44.64123" lon="3.23037">
        <ele>1076</ele>
        <time>2019-05-30T13:04:14.342Z</time>
      </trkpt>
      <trkpt lat="44.64126" lon="3.23033">
        <ele>1074</ele>
        <time>2019-05-30T13:04:19.372Z</time>
      </trkpt>
      <trkpt lat="44.64129" lon="3.2303">
        <ele>1074</ele>
        <time>2019-05-30T13:04:24.387Z</time>
      </trkpt>
      <trkpt lat="44.64133" lon="3.23027">
        <ele>1074</ele>
        <time>2019-05-30T13:04:29.337Z</time>
      </trkpt>
      <trkpt lat="44.64136" lon="3.23025">
        <ele>1074</ele>
        <time>2019-05-30T13:04:33.345Z</time>
      </trkpt>
      <trkpt lat="44.64138" lon="3.23019">
        <ele>1074</ele>
        <time>2019-05-30T13:04:38.341Z</time>
      </trkpt>
      <trkpt lat="44.64137" lon="3.23008">
        <ele>1075</ele>
        <time>2019-05-30T13:04:52.369Z</time>
      </trkpt>
      <trkpt lat="44.64137" lon="3.23007">
        <ele>1075</ele>
        <time>2019-05-30T13:05:16.318Z</time>
      </trkpt>
      <trkpt lat="44.64137" lon="3.23002">
        <ele>1075</ele>
        <time>2019-05-30T13:05:21.364Z</time>
      </trkpt>
      <trkpt lat="44.64137" lon="3.23">
        <ele>1075</ele>
        <time>2019-05-30T13:05:26.334Z</time>
      </trkpt>
      <trkpt lat="44.64137" lon="3.22999">
        <ele>1075</ele>
        <time>2019-05-30T13:05:30.345Z</time>
      </trkpt>
      <trkpt lat="44.64138" lon="3.22993">
        <ele>1075</ele>
        <time>2019-05-30T13:05:35.332Z</time>
      </trkpt>
      <trkpt lat="44.6414" lon="3.22988">
        <ele>1075</ele>
        <time>2019-05-30T13:05:39.370Z</time>
      </trkpt>
      <trkpt lat="44.64143" lon="3.22986">
        <ele>1077</ele>
        <time>2019-05-30T13:05:44.340Z</time>
      </trkpt>
      <trkpt lat="44.64146" lon="3.22983">
        <ele>1077</ele>
        <time>2019-05-30T13:05:48.357Z</time>
      </trkpt>
      <trkpt lat="44.64148" lon="3.22977">
        <ele>1077</ele>
        <time>2019-05-30T13:05:53.347Z</time>
      </trkpt>
      <trkpt lat="44.6415" lon="3.22972">
        <ele>1077</ele>
        <time>2019-05-30T13:05:58.348Z</time>
      </trkpt>
      <trkpt lat="44.64152" lon="3.22968">
        <ele>1077</ele>
        <time>2019-05-30T13:06:03.333Z</time>
      </trkpt>
      <trkpt lat="44.64154" lon="3.22964">
        <ele>1077</ele>
        <time>2019-05-30T13:06:08.376Z</time>
      </trkpt>
      <trkpt lat="44.64158" lon="3.22959">
        <ele>1077</ele>
        <time>2019-05-30T13:06:13.353Z</time>
      </trkpt>
      <trkpt lat="44.64161" lon="3.22953">
        <ele>1076</ele>
        <time>2019-05-30T13:06:18.320Z</time>
      </trkpt>
      <trkpt lat="44.64163" lon="3.22948">
        <ele>1076</ele>
        <time>2019-05-30T13:06:22.348Z</time>
      </trkpt>
      <trkpt lat="44.64165" lon="3.22942">
        <ele>1076</ele>
        <time>2019-05-30T13:06:26.381Z</time>
      </trkpt>
      <trkpt lat="44.64169" lon="3.22939">
        <ele>1076</ele>
        <time>2019-05-30T13:06:31.340Z</time>
      </trkpt>
      <trkpt lat="44.64172" lon="3.22936">
        <ele>1076</ele>
        <time>2019-05-30T13:06:36.349Z</time>
      </trkpt>
      <trkpt lat="44.64175" lon="3.22937">
        <ele>1076</ele>
        <time>2019-05-30T13:06:41.344Z</time>
      </trkpt>
      <trkpt lat="44.64178" lon="3.22939">
        <ele>1076</ele>
        <time>2019-05-30T13:06:46.354Z</time>
      </trkpt>
      <trkpt lat="44.6418" lon="3.2294">
        <ele>1076</ele>
        <time>2019-05-30T13:06:51.342Z</time>
      </trkpt>
      <trkpt lat="44.64181" lon="3.2294">
        <ele>1076</ele>
        <time>2019-05-30T13:06:56.356Z</time>
      </trkpt>
      <trkpt lat="44.64187" lon="3.22936">
        <ele>1076</ele>
        <time>2019-05-30T13:07:01.334Z</time>
      </trkpt>
      <trkpt lat="44.64188" lon="3.22935">
        <ele>1076</ele>
        <time>2019-05-30T13:07:05.341Z</time>
      </trkpt>
      <trkpt lat="44.64192" lon="3.22931">
        <ele>1076</ele>
        <time>2019-05-30T13:07:10.360Z</time>
      </trkpt>
      <trkpt lat="44.64193" lon="3.22928">
        <ele>1076</ele>
        <time>2019-05-30T13:07:15.346Z</time>
      </trkpt>
      <trkpt lat="44.64196" lon="3.22925">
        <ele>1076</ele>
        <time>2019-05-30T13:07:20.351Z</time>
      </trkpt>
      <trkpt lat="44.64201" lon="3.22921">
        <ele>1076</ele>
        <time>2019-05-30T13:07:25.343Z</time>
      </trkpt>
      <trkpt lat="44.64206" lon="3.22913">
        <ele>1076</ele>
        <time>2019-05-30T13:07:30.338Z</time>
      </trkpt>
      <trkpt lat="44.64208" lon="3.22912">
        <ele>1076</ele>
        <time>2019-05-30T13:07:34.375Z</time>
      </trkpt>
      <trkpt lat="44.64211" lon="3.2291">
        <ele>1076</ele>
        <time>2019-05-30T13:07:39.336Z</time>
      </trkpt>
      <trkpt lat="44.64214" lon="3.22906">
        <ele>1076</ele>
        <time>2019-05-30T13:07:44.338Z</time>
      </trkpt>
      <trkpt lat="44.64218" lon="3.22902">
        <ele>1077</ele>
        <time>2019-05-30T13:07:49.353Z</time>
      </trkpt>
      <trkpt lat="44.64218" lon="3.22903">
        <ele>1076</ele>
        <time>2019-05-30T13:08:18.322Z</time>
      </trkpt>
      <trkpt lat="44.64221" lon="3.22897">
        <ele>1077</ele>
        <time>2019-05-30T13:08:22.368Z</time>
      </trkpt>
      <trkpt lat="44.64223" lon="3.22894">
        <ele>1077</ele>
        <time>2019-05-30T13:08:27.341Z</time>
      </trkpt>
      <trkpt lat="44.64227" lon="3.22889">
        <ele>1077</ele>
        <time>2019-05-30T13:08:32.334Z</time>
      </trkpt>
      <trkpt lat="44.64229" lon="3.22885">
        <ele>1077</ele>
        <time>2019-05-30T13:08:36.359Z</time>
      </trkpt>
      <trkpt lat="44.64234" lon="3.22885">
        <ele>1077</ele>
        <time>2019-05-30T13:08:41.349Z</time>
      </trkpt>
      <trkpt lat="44.64238" lon="3.22885">
        <ele>1079</ele>
        <time>2019-05-30T13:08:46.362Z</time>
      </trkpt>
      <trkpt lat="44.64242" lon="3.22887">
        <ele>1079</ele>
        <time>2019-05-30T13:08:51.341Z</time>
      </trkpt>
      <trkpt lat="44.64246" lon="3.22887">
        <ele>1079</ele>
        <time>2019-05-30T13:08:55.358Z</time>
      </trkpt>
      <trkpt lat="44.64252" lon="3.22888">
        <ele>1079</ele>
        <time>2019-05-30T13:09:00.344Z</time>
      </trkpt>
      <trkpt lat="44.64257" lon="3.22887">
        <ele>1079</ele>
        <time>2019-05-30T13:09:05.341Z</time>
      </trkpt>
      <trkpt lat="44.64262" lon="3.22888">
        <ele>1079</ele>
        <time>2019-05-30T13:09:10.349Z</time>
      </trkpt>
      <trkpt lat="44.64267" lon="3.22888">
        <ele>1079</ele>
        <time>2019-05-30T13:09:15.351Z</time>
      </trkpt>
      <trkpt lat="44.64268" lon="3.22888">
        <ele>1079</ele>
        <time>2019-05-30T13:09:20.371Z</time>
      </trkpt>
      <trkpt lat="44.6427" lon="3.22889">
        <ele>1079</ele>
        <time>2019-05-30T13:09:25.382Z</time>
      </trkpt>
      <trkpt lat="44.64273" lon="3.22889">
        <ele>1079</ele>
        <time>2019-05-30T13:09:30.338Z</time>
      </trkpt>
      <trkpt lat="44.64274" lon="3.22892">
        <ele>1079</ele>
        <time>2019-05-30T13:09:40.342Z</time>
      </trkpt>
      <trkpt lat="44.64276" lon="3.22896">
        <ele>1079</ele>
        <time>2019-05-30T13:09:45.338Z</time>
      </trkpt>
      <trkpt lat="44.64278" lon="3.22896">
        <ele>1079</ele>
        <time>2019-05-30T13:10:05.341Z</time>
      </trkpt>
      <trkpt lat="44.64286" lon="3.22897">
        <ele>1079</ele>
        <time>2019-05-30T13:10:10.343Z</time>
      </trkpt>
      <trkpt lat="44.64291" lon="3.22892">
        <ele>1079</ele>
        <time>2019-05-30T13:10:14.371Z</time>
      </trkpt>
      <trkpt lat="44.64292" lon="3.22889">
        <ele>1077</ele>
        <time>2019-05-30T13:10:24.388Z</time>
      </trkpt>
      <trkpt lat="44.64292" lon="3.22888">
        <ele>1077</ele>
        <time>2019-05-30T13:10:29.346Z</time>
      </trkpt>
      <trkpt lat="44.64293" lon="3.22882">
        <ele>1077</ele>
        <time>2019-05-30T13:10:34.343Z</time>
      </trkpt>
      <trkpt lat="44.64298" lon="3.22872">
        <ele>1080</ele>
        <time>2019-05-30T13:10:58.346Z</time>
      </trkpt>
      <trkpt lat="44.64301" lon="3.22866">
        <ele>1080</ele>
        <time>2019-05-30T13:11:03.345Z</time>
      </trkpt>
      <trkpt lat="44.64304" lon="3.2286">
        <ele>1080</ele>
        <time>2019-05-30T13:11:18.340Z</time>
      </trkpt>
      <trkpt lat="44.6431" lon="3.2286">
        <ele>1080</ele>
        <time>2019-05-30T13:11:27.368Z</time>
      </trkpt>
      <trkpt lat="44.64317" lon="3.22858">
        <ele>1080</ele>
        <time>2019-05-30T13:11:32.375Z</time>
      </trkpt>
      <trkpt lat="44.64319" lon="3.22858">
        <ele>1080</ele>
        <time>2019-05-30T13:11:46.326Z</time>
      </trkpt>
      <trkpt lat="44.64331" lon="3.22859">
        <ele>1080</ele>
        <time>2019-05-30T13:11:51.341Z</time>
      </trkpt>
      <trkpt lat="44.64339" lon="3.22861">
        <ele>1080</ele>
        <time>2019-05-30T13:11:55.359Z</time>
      </trkpt>
      <trkpt lat="44.64343" lon="3.22863">
        <ele>1080</ele>
        <time>2019-05-30T13:12:00.317Z</time>
      </trkpt>
      <trkpt lat="44.64346" lon="3.22862">
        <ele>1080</ele>
        <time>2019-05-30T13:12:04.362Z</time>
      </trkpt>
      <trkpt lat="44.6435" lon="3.22863">
        <ele>1081</ele>
        <time>2019-05-30T13:12:09.328Z</time>
      </trkpt>
      <trkpt lat="44.6435" lon="3.22863">
        <ele>1081</ele>
        <time>2019-05-30T13:12:14.320Z</time>
      </trkpt>
      <trkpt lat="44.64346" lon="3.22859">
        <ele>1080</ele>
        <time>2019-05-30T13:12:19.325Z</time>
      </trkpt>
      <trkpt lat="44.64341" lon="3.22857">
        <ele>1080</ele>
        <time>2019-05-30T13:12:29.324Z</time>
      </trkpt>
      <trkpt lat="44.64342" lon="3.22861">
        <ele>1080</ele>
        <time>2019-05-30T13:12:44.323Z</time>
      </trkpt>
      <trkpt lat="44.64343" lon="3.22862">
        <ele>1080</ele>
        <time>2019-05-30T13:12:48.340Z</time>
      </trkpt>
      <trkpt lat="44.64345" lon="3.22865">
        <ele>1080</ele>
        <time>2019-05-30T13:12:58.337Z</time>
      </trkpt>
      <trkpt lat="44.64348" lon="3.22865">
        <ele>1081</ele>
        <time>2019-05-30T13:13:02.340Z</time>
      </trkpt>
      <trkpt lat="44.64352" lon="3.22866">
        <ele>1081</ele>
        <time>2019-05-30T13:13:07.341Z</time>
      </trkpt>
      <trkpt lat="44.64355" lon="3.22866">
        <ele>1081</ele>
        <time>2019-05-30T13:13:12.342Z</time>
      </trkpt>
      <trkpt lat="44.64364" lon="3.22865">
        <ele>1081</ele>
        <time>2019-05-30T13:13:22.345Z</time>
      </trkpt>
      <trkpt lat="44.6437" lon="3.22866">
        <ele>1081</ele>
        <time>2019-05-30T13:13:27.342Z</time>
      </trkpt>
      <trkpt lat="44.64373" lon="3.22866">
        <ele>1081</ele>
        <time>2019-05-30T13:13:31.348Z</time>
      </trkpt>
      <trkpt lat="44.64377" lon="3.22865">
        <ele>1081</ele>
        <time>2019-05-30T13:13:36.346Z</time>
      </trkpt>
      <trkpt lat="44.6438" lon="3.22866">
        <ele>1081</ele>
        <time>2019-05-30T13:13:40.366Z</time>
      </trkpt>
      <trkpt lat="44.64388" lon="3.2287">
        <ele>1081</ele>
        <time>2019-05-30T13:13:45.351Z</time>
      </trkpt>
      <trkpt lat="44.64392" lon="3.22872">
        <ele>1081</ele>
        <time>2019-05-30T13:13:50.355Z</time>
      </trkpt>
      <trkpt lat="44.64398" lon="3.2287">
        <ele>1081</ele>
        <time>2019-05-30T13:13:55.336Z</time>
      </trkpt>
      <trkpt lat="44.64402" lon="3.22869">
        <ele>1081</ele>
        <time>2019-05-30T13:14:00.343Z</time>
      </trkpt>
      <trkpt lat="44.64405" lon="3.22868">
        <ele>1081</ele>
        <time>2019-05-30T13:14:04.354Z</time>
      </trkpt>
      <trkpt lat="44.64409" lon="3.22866">
        <ele>1081</ele>
        <time>2019-05-30T13:14:09.343Z</time>
      </trkpt>
      <trkpt lat="44.6441" lon="3.22866">
        <ele>1081</ele>
        <time>2019-05-30T13:14:14.341Z</time>
      </trkpt>
      <trkpt lat="44.6441" lon="3.22866">
        <ele>1081</ele>
        <time>2019-05-30T13:14:28.367Z</time>
      </trkpt>
      <trkpt lat="44.64414" lon="3.22866">
        <ele>1081</ele>
        <time>2019-05-30T13:14:33.355Z</time>
      </trkpt>
      <trkpt lat="44.64417" lon="3.22868">
        <ele>1081</ele>
        <time>2019-05-30T13:14:37.369Z</time>
      </trkpt>
      <trkpt lat="44.64421" lon="3.22869">
        <ele>1081</ele>
        <time>2019-05-30T13:14:42.388Z</time>
      </trkpt>
      <trkpt lat="44.64423" lon="3.22874">
        <ele>1081</ele>
        <time>2019-05-30T13:14:47.344Z</time>
      </trkpt>
      <trkpt lat="44.64422" lon="3.22879">
        <ele>1077</ele>
        <time>2019-05-30T13:14:52.345Z</time>
      </trkpt>
      <trkpt lat="44.64422" lon="3.22885">
        <ele>1077</ele>
        <time>2019-05-30T13:14:57.341Z</time>
      </trkpt>
      <trkpt lat="44.64422" lon="3.22892">
        <ele>1077</ele>
        <time>2019-05-30T13:15:01.340Z</time>
      </trkpt>
      <trkpt lat="44.64423" lon="3.22897">
        <ele>1077</ele>
        <time>2019-05-30T13:15:05.375Z</time>
      </trkpt>
      <trkpt lat="44.64426" lon="3.22903">
        <ele>1075</ele>
        <time>2019-05-30T13:15:10.341Z</time>
      </trkpt>
      <trkpt lat="44.64426" lon="3.22907">
        <ele>1075</ele>
        <time>2019-05-30T13:15:14.348Z</time>
      </trkpt>
      <trkpt lat="44.64427" lon="3.22913">
        <ele>1075</ele>
        <time>2019-05-30T13:15:19.340Z</time>
      </trkpt>
      <trkpt lat="44.64425" lon="3.22919">
        <ele>1075</ele>
        <time>2019-05-30T13:15:24.342Z</time>
      </trkpt>
      <trkpt lat="44.64425" lon="3.22926">
        <ele>1075</ele>
        <time>2019-05-30T13:15:29.349Z</time>
      </trkpt>
      <trkpt lat="44.64425" lon="3.22932">
        <ele>1074</ele>
        <time>2019-05-30T13:15:34.351Z</time>
      </trkpt>
      <trkpt lat="44.64426" lon="3.22939">
        <ele>1074</ele>
        <time>2019-05-30T13:15:39.340Z</time>
      </trkpt>
      <trkpt lat="44.64428" lon="3.22944">
        <ele>1074</ele>
        <time>2019-05-30T13:15:44.347Z</time>
      </trkpt>
      <trkpt lat="44.64427" lon="3.22951">
        <ele>1074</ele>
        <time>2019-05-30T13:15:49.342Z</time>
      </trkpt>
      <trkpt lat="44.64427" lon="3.22957">
        <ele>1074</ele>
        <time>2019-05-30T13:15:54.372Z</time>
      </trkpt>
      <trkpt lat="44.64427" lon="3.22963">
        <ele>1075</ele>
        <time>2019-05-30T13:15:59.343Z</time>
      </trkpt>
      <trkpt lat="44.64427" lon="3.22969">
        <ele>1075</ele>
        <time>2019-05-30T13:16:04.354Z</time>
      </trkpt>
      <trkpt lat="44.64429" lon="3.22975">
        <ele>1075</ele>
        <time>2019-05-30T13:16:09.339Z</time>
      </trkpt>
      <trkpt lat="44.64431" lon="3.22981">
        <ele>1076</ele>
        <time>2019-05-30T13:16:14.356Z</time>
      </trkpt>
      <trkpt lat="44.64433" lon="3.22985">
        <ele>1076</ele>
        <time>2019-05-30T13:16:19.353Z</time>
      </trkpt>
      <trkpt lat="44.64434" lon="3.22991">
        <ele>1076</ele>
        <time>2019-05-30T13:16:24.339Z</time>
      </trkpt>
      <trkpt lat="44.64436" lon="3.22998">
        <ele>1076</ele>
        <time>2019-05-30T13:16:28.347Z</time>
      </trkpt>
      <trkpt lat="44.64439" lon="3.23002">
        <ele>1076</ele>
        <time>2019-05-30T13:16:32.379Z</time>
      </trkpt>
      <trkpt lat="44.64443" lon="3.23007">
        <ele>1076</ele>
        <time>2019-05-30T13:16:37.376Z</time>
      </trkpt>
      <trkpt lat="44.64448" lon="3.23014">
        <ele>1076</ele>
        <time>2019-05-30T13:16:46.371Z</time>
      </trkpt>
      <trkpt lat="44.64449" lon="3.23018">
        <ele>1077</ele>
        <time>2019-05-30T13:16:51.348Z</time>
      </trkpt>
      <trkpt lat="44.6445" lon="3.23018">
        <ele>1077</ele>
        <time>2019-05-30T13:16:56.342Z</time>
      </trkpt>
      <trkpt lat="44.6445" lon="3.2302">
        <ele>1077</ele>
        <time>2019-05-30T13:17:06.322Z</time>
      </trkpt>
      <trkpt lat="44.64449" lon="3.23028">
        <ele>1077</ele>
        <time>2019-05-30T13:17:11.328Z</time>
      </trkpt>
      <trkpt lat="44.64443" lon="3.23031">
        <ele>1077</ele>
        <time>2019-05-30T13:17:16.323Z</time>
      </trkpt>
      <trkpt lat="44.64435" lon="3.23031">
        <ele>1077</ele>
        <time>2019-05-30T13:17:21.330Z</time>
      </trkpt>
      <trkpt lat="44.64429" lon="3.23035">
        <ele>1078</ele>
        <time>2019-05-30T13:17:26.350Z</time>
      </trkpt>
      <trkpt lat="44.64424" lon="3.23037">
        <ele>1078</ele>
        <time>2019-05-30T13:17:31.326Z</time>
      </trkpt>
      <trkpt lat="44.64421" lon="3.23039">
        <ele>1078</ele>
        <time>2019-05-30T13:17:36.319Z</time>
      </trkpt>
      <trkpt lat="44.64418" lon="3.23044">
        <ele>1080</ele>
        <time>2019-05-30T13:17:41.330Z</time>
      </trkpt>
      <trkpt lat="44.64417" lon="3.23051">
        <ele>1080</ele>
        <time>2019-05-30T13:17:46.323Z</time>
      </trkpt>
      <trkpt lat="44.64418" lon="3.23056">
        <ele>1080</ele>
        <time>2019-05-30T13:17:50.356Z</time>
      </trkpt>
      <trkpt lat="44.64412" lon="3.23058">
        <ele>1080</ele>
        <time>2019-05-30T13:17:55.325Z</time>
      </trkpt>
      <trkpt lat="44.64407" lon="3.23057">
        <ele>1080</ele>
        <time>2019-05-30T13:17:59.339Z</time>
      </trkpt>
      <trkpt lat="44.64403" lon="3.23059">
        <ele>1080</ele>
        <time>2019-05-30T13:18:04.338Z</time>
      </trkpt>
      <trkpt lat="44.64397" lon="3.23062">
        <ele>1080</ele>
        <time>2019-05-30T13:18:09.339Z</time>
      </trkpt>
      <trkpt lat="44.64396" lon="3.23063">
        <ele>1080</ele>
        <time>2019-05-30T13:18:13.338Z</time>
      </trkpt>
      <trkpt lat="44.644" lon="3.23065">
        <ele>1080</ele>
        <time>2019-05-30T13:19:11.347Z</time>
      </trkpt>
      <trkpt lat="44.64404" lon="3.23068">
        <ele>1080</ele>
        <time>2019-05-30T13:19:29.369Z</time>
      </trkpt>
      <trkpt lat="44.64408" lon="3.23069">
        <ele>1080</ele>
        <time>2019-05-30T13:19:34.344Z</time>
      </trkpt>
      <trkpt lat="44.64411" lon="3.23068">
        <ele>1080</ele>
        <time>2019-05-30T13:19:39.345Z</time>
      </trkpt>
      <trkpt lat="44.64413" lon="3.23068">
        <ele>1080</ele>
        <time>2019-05-30T13:19:44.341Z</time>
      </trkpt>
      <trkpt lat="44.64416" lon="3.2307">
        <ele>1083</ele>
        <time>2019-05-30T13:19:49.335Z</time>
      </trkpt>
      <trkpt lat="44.64424" lon="3.23073">
        <ele>1083</ele>
        <time>2019-05-30T13:19:53.349Z</time>
      </trkpt>
      <trkpt lat="44.64429" lon="3.23073">
        <ele>1083</ele>
        <time>2019-05-30T13:19:58.339Z</time>
      </trkpt>
      <trkpt lat="44.64433" lon="3.23073">
        <ele>1082</ele>
        <time>2019-05-30T13:20:03.339Z</time>
      </trkpt>
      <trkpt lat="44.64436" lon="3.23075">
        <ele>1082</ele>
        <time>2019-05-30T13:20:07.376Z</time>
      </trkpt>
      <trkpt lat="44.64439" lon="3.23077">
        <ele>1082</ele>
        <time>2019-05-30T13:20:12.375Z</time>
      </trkpt>
      <trkpt lat="44.64444" lon="3.23079">
        <ele>1082</ele>
        <time>2019-05-30T13:20:17.336Z</time>
      </trkpt>
      <trkpt lat="44.64453" lon="3.23078">
        <ele>1082</ele>
        <time>2019-05-30T13:20:22.346Z</time>
      </trkpt>
      <trkpt lat="44.64458" lon="3.23081">
        <ele>1082</ele>
        <time>2019-05-30T13:20:27.319Z</time>
      </trkpt>
      <trkpt lat="44.64461" lon="3.23082">
        <ele>1080</ele>
        <time>2019-05-30T13:20:31.342Z</time>
      </trkpt>
      <trkpt lat="44.64464" lon="3.23089">
        <ele>1080</ele>
        <time>2019-05-30T13:20:36.348Z</time>
      </trkpt>
      <trkpt lat="44.64468" lon="3.23095">
        <ele>1080</ele>
        <time>2019-05-30T13:20:41.341Z</time>
      </trkpt>
      <trkpt lat="44.64473" lon="3.23093">
        <ele>1080</ele>
        <time>2019-05-30T13:20:45.372Z</time>
      </trkpt>
      <trkpt lat="44.64478" lon="3.23092">
        <ele>1080</ele>
        <time>2019-05-30T13:20:50.341Z</time>
      </trkpt>
      <trkpt lat="44.64483" lon="3.23094">
        <ele>1080</ele>
        <time>2019-05-30T13:20:55.339Z</time>
      </trkpt>
      <trkpt lat="44.64488" lon="3.23094">
        <ele>1080</ele>
        <time>2019-05-30T13:21:00.340Z</time>
      </trkpt>
      <trkpt lat="44.6449" lon="3.23095">
        <ele>1080</ele>
        <time>2019-05-30T13:21:04.381Z</time>
      </trkpt>
      <trkpt lat="44.64492" lon="3.23097">
        <ele>1080</ele>
        <time>2019-05-30T13:21:09.341Z</time>
      </trkpt>
      <trkpt lat="44.64495" lon="3.23097">
        <ele>1080</ele>
        <time>2019-05-30T13:21:13.342Z</time>
      </trkpt>
      <trkpt lat="44.64497" lon="3.23096">
        <ele>1080</ele>
        <time>2019-05-30T13:21:18.347Z</time>
      </trkpt>
      <trkpt lat="44.64502" lon="3.23095">
        <ele>1080</ele>
        <time>2019-05-30T13:21:23.345Z</time>
      </trkpt>
      <trkpt lat="44.64506" lon="3.23098">
        <ele>1080</ele>
        <time>2019-05-30T13:21:28.345Z</time>
      </trkpt>
      <trkpt lat="44.64511" lon="3.23101">
        <ele>1080</ele>
        <time>2019-05-30T13:21:33.341Z</time>
      </trkpt>
      <trkpt lat="44.64514" lon="3.23104">
        <ele>1083</ele>
        <time>2019-05-30T13:21:37.350Z</time>
      </trkpt>
      <trkpt lat="44.64519" lon="3.23109">
        <ele>1083</ele>
        <time>2019-05-30T13:21:42.344Z</time>
      </trkpt>
      <trkpt lat="44.64523" lon="3.23114">
        <ele>1083</ele>
        <time>2019-05-30T13:21:47.358Z</time>
      </trkpt>
      <trkpt lat="44.64524" lon="3.23123">
        <ele>1083</ele>
        <time>2019-05-30T13:21:52.348Z</time>
      </trkpt>
      <trkpt lat="44.64525" lon="3.23132">
        <ele>1082</ele>
        <time>2019-05-30T13:21:57.346Z</time>
      </trkpt>
      <trkpt lat="44.64528" lon="3.23133">
        <ele>1082</ele>
        <time>2019-05-30T13:22:02.371Z</time>
      </trkpt>
      <trkpt lat="44.64536" lon="3.23132">
        <ele>1082</ele>
        <time>2019-05-30T13:22:07.341Z</time>
      </trkpt>
      <trkpt lat="44.64542" lon="3.23133">
        <ele>1085</ele>
        <time>2019-05-30T13:22:12.345Z</time>
      </trkpt>
      <trkpt lat="44.64546" lon="3.23136">
        <ele>1085</ele>
        <time>2019-05-30T13:22:17.346Z</time>
      </trkpt>
      <trkpt lat="44.64549" lon="3.23139">
        <ele>1085</ele>
        <time>2019-05-30T13:22:21.378Z</time>
      </trkpt>
      <trkpt lat="44.64554" lon="3.23142">
        <ele>1085</ele>
        <time>2019-05-30T13:22:26.336Z</time>
      </trkpt>
      <trkpt lat="44.64559" lon="3.23146">
        <ele>1085</ele>
        <time>2019-05-30T13:22:31.347Z</time>
      </trkpt>
      <trkpt lat="44.64563" lon="3.23152">
        <ele>1085</ele>
        <time>2019-05-30T13:22:36.339Z</time>
      </trkpt>
      <trkpt lat="44.64569" lon="3.23153">
        <ele>1083</ele>
        <time>2019-05-30T13:22:41.338Z</time>
      </trkpt>
      <trkpt lat="44.64575" lon="3.23152">
        <ele>1087</ele>
        <time>2019-05-30T13:22:46.340Z</time>
      </trkpt>
      <trkpt lat="44.6458" lon="3.23151">
        <ele>1087</ele>
        <time>2019-05-30T13:22:50.347Z</time>
      </trkpt>
      <trkpt lat="44.64585" lon="3.23148">
        <ele>1087</ele>
        <time>2019-05-30T13:22:55.341Z</time>
      </trkpt>
      <trkpt lat="44.64589" lon="3.23151">
        <ele>1087</ele>
        <time>2019-05-30T13:23:00.359Z</time>
      </trkpt>
      <trkpt lat="44.64594" lon="3.23151">
        <ele>1087</ele>
        <time>2019-05-30T13:23:05.340Z</time>
      </trkpt>
      <trkpt lat="44.64598" lon="3.23152">
        <ele>1091</ele>
        <time>2019-05-30T13:23:09.346Z</time>
      </trkpt>
      <trkpt lat="44.64605" lon="3.23148">
        <ele>1091</ele>
        <time>2019-05-30T13:23:14.340Z</time>
      </trkpt>
      <trkpt lat="44.64611" lon="3.23147">
        <ele>1091</ele>
        <time>2019-05-30T13:23:19.342Z</time>
      </trkpt>
      <trkpt lat="44.64614" lon="3.23145">
        <ele>1091</ele>
        <time>2019-05-30T13:23:24.349Z</time>
      </trkpt>
      <trkpt lat="44.64618" lon="3.23143">
        <ele>1091</ele>
        <time>2019-05-30T13:23:29.339Z</time>
      </trkpt>
      <trkpt lat="44.64622" lon="3.23145">
        <ele>1091</ele>
        <time>2019-05-30T13:23:33.346Z</time>
      </trkpt>
      <trkpt lat="44.64628" lon="3.23144">
        <ele>1092</ele>
        <time>2019-05-30T13:23:38.338Z</time>
      </trkpt>
      <trkpt lat="44.64633" lon="3.23142">
        <ele>1092</ele>
        <time>2019-05-30T13:23:42.343Z</time>
      </trkpt>
      <trkpt lat="44.64637" lon="3.23141">
        <ele>1092</ele>
        <time>2019-05-30T13:23:47.346Z</time>
      </trkpt>
      <trkpt lat="44.64641" lon="3.2314">
        <ele>1092</ele>
        <time>2019-05-30T13:23:52.347Z</time>
      </trkpt>
      <trkpt lat="44.64646" lon="3.23141">
        <ele>1092</ele>
        <time>2019-05-30T13:23:57.340Z</time>
      </trkpt>
      <trkpt lat="44.64651" lon="3.23139">
        <ele>1092</ele>
        <time>2019-05-30T13:24:02.376Z</time>
      </trkpt>
      <trkpt lat="44.64656" lon="3.23136">
        <ele>1090</ele>
        <time>2019-05-30T13:24:07.341Z</time>
      </trkpt>
      <trkpt lat="44.64661" lon="3.23136">
        <ele>1090</ele>
        <time>2019-05-30T13:24:12.347Z</time>
      </trkpt>
      <trkpt lat="44.64668" lon="3.23134">
        <ele>1090</ele>
        <time>2019-05-30T13:24:17.370Z</time>
      </trkpt>
      <trkpt lat="44.64673" lon="3.23132">
        <ele>1090</ele>
        <time>2019-05-30T13:24:22.355Z</time>
      </trkpt>
      <trkpt lat="44.64677" lon="3.23129">
        <ele>1090</ele>
        <time>2019-05-30T13:24:26.374Z</time>
      </trkpt>
      <trkpt lat="44.64685" lon="3.23126">
        <ele>1090</ele>
        <time>2019-05-30T13:24:50.342Z</time>
      </trkpt>
      <trkpt lat="44.64688" lon="3.23128">
        <ele>1090</ele>
        <time>2019-05-30T13:25:00.344Z</time>
      </trkpt>
      <trkpt lat="44.64692" lon="3.23126">
        <ele>1090</ele>
        <time>2019-05-30T13:25:04.367Z</time>
      </trkpt>
      <trkpt lat="44.64699" lon="3.23123">
        <ele>1094</ele>
        <time>2019-05-30T13:25:09.345Z</time>
      </trkpt>
      <trkpt lat="44.64703" lon="3.2312">
        <ele>1094</ele>
        <time>2019-05-30T13:25:13.367Z</time>
      </trkpt>
      <trkpt lat="44.64708" lon="3.23121">
        <ele>1094</ele>
        <time>2019-05-30T13:25:18.347Z</time>
      </trkpt>
      <trkpt lat="44.64711" lon="3.23118">
        <ele>1094</ele>
        <time>2019-05-30T13:25:23.349Z</time>
      </trkpt>
      <trkpt lat="44.64716" lon="3.23116">
        <ele>1094</ele>
        <time>2019-05-30T13:25:28.345Z</time>
      </trkpt>
      <trkpt lat="44.64721" lon="3.23115">
        <ele>1094</ele>
        <time>2019-05-30T13:25:33.377Z</time>
      </trkpt>
      <trkpt lat="44.64725" lon="3.23117">
        <ele>1094</ele>
        <time>2019-05-30T13:25:38.365Z</time>
      </trkpt>
      <trkpt lat="44.6473" lon="3.23117">
        <ele>1094</ele>
        <time>2019-05-30T13:25:43.347Z</time>
      </trkpt>
      <trkpt lat="44.64732" lon="3.23118">
        <ele>1094</ele>
        <time>2019-05-30T13:25:48.370Z</time>
      </trkpt>
      <trkpt lat="44.64737" lon="3.23124">
        <ele>1094</ele>
        <time>2019-05-30T13:25:53.338Z</time>
      </trkpt>
      <trkpt lat="44.64744" lon="3.23126">
        <ele>1090</ele>
        <time>2019-05-30T13:25:58.340Z</time>
      </trkpt>
      <trkpt lat="44.64747" lon="3.23124">
        <ele>1094</ele>
        <time>2019-05-30T13:26:03.340Z</time>
      </trkpt>
      <trkpt lat="44.64751" lon="3.23122">
        <ele>1094</ele>
        <time>2019-05-30T13:26:08.345Z</time>
      </trkpt>
      <trkpt lat="44.64757" lon="3.23122">
        <ele>1094</ele>
        <time>2019-05-30T13:26:13.343Z</time>
      </trkpt>
      <trkpt lat="44.64761" lon="3.23123">
        <ele>1094</ele>
        <time>2019-05-30T13:26:18.338Z</time>
      </trkpt>
      <trkpt lat="44.64765" lon="3.23124">
        <ele>1095</ele>
        <time>2019-05-30T13:26:38.351Z</time>
      </trkpt>
      <trkpt lat="44.64771" lon="3.23126">
        <ele>1091</ele>
        <time>2019-05-30T13:26:43.344Z</time>
      </trkpt>
      <trkpt lat="44.64778" lon="3.2313">
        <ele>1091</ele>
        <time>2019-05-30T13:26:48.345Z</time>
      </trkpt>
      <trkpt lat="44.64782" lon="3.23131">
        <ele>1091</ele>
        <time>2019-05-30T13:26:52.370Z</time>
      </trkpt>
      <trkpt lat="44.64788" lon="3.23125">
        <ele>1095</ele>
        <time>2019-05-30T13:26:57.368Z</time>
      </trkpt>
      <trkpt lat="44.64792" lon="3.23122">
        <ele>1095</ele>
        <time>2019-05-30T13:27:01.375Z</time>
      </trkpt>
      <trkpt lat="44.64798" lon="3.23121">
        <ele>1095</ele>
        <time>2019-05-30T13:27:06.368Z</time>
      </trkpt>
      <trkpt lat="44.64803" lon="3.2312">
        <ele>1095</ele>
        <time>2019-05-30T13:27:11.339Z</time>
      </trkpt>
      <trkpt lat="44.64806" lon="3.23119">
        <ele>1095</ele>
        <time>2019-05-30T13:27:16.339Z</time>
      </trkpt>
      <trkpt lat="44.64813" lon="3.23119">
        <ele>1095</ele>
        <time>2019-05-30T13:27:21.358Z</time>
      </trkpt>
      <trkpt lat="44.64817" lon="3.23119">
        <ele>1095</ele>
        <time>2019-05-30T13:27:26.343Z</time>
      </trkpt>
      <trkpt lat="44.64822" lon="3.23116">
        <ele>1096</ele>
        <time>2019-05-30T13:27:31.380Z</time>
      </trkpt>
      <trkpt lat="44.64827" lon="3.23116">
        <ele>1096</ele>
        <time>2019-05-30T13:27:36.350Z</time>
      </trkpt>
      <trkpt lat="44.64831" lon="3.23117">
        <ele>1096</ele>
        <time>2019-05-30T13:27:41.335Z</time>
      </trkpt>
      <trkpt lat="44.64834" lon="3.23115">
        <ele>1096</ele>
        <time>2019-05-30T13:27:46.344Z</time>
      </trkpt>
      <trkpt lat="44.64841" lon="3.23112">
        <ele>1096</ele>
        <time>2019-05-30T13:27:51.338Z</time>
      </trkpt>
      <trkpt lat="44.64843" lon="3.23111">
        <ele>1096</ele>
        <time>2019-05-30T13:27:55.373Z</time>
      </trkpt>
      <trkpt lat="44.64849" lon="3.23108">
        <ele>1098</ele>
        <time>2019-05-30T13:28:00.347Z</time>
      </trkpt>
      <trkpt lat="44.64852" lon="3.23105">
        <ele>1098</ele>
        <time>2019-05-30T13:28:05.336Z</time>
      </trkpt>
      <trkpt lat="44.64858" lon="3.23102">
        <ele>1098</ele>
        <time>2019-05-30T13:28:09.347Z</time>
      </trkpt>
      <trkpt lat="44.64864" lon="3.231">
        <ele>1098</ele>
        <time>2019-05-30T13:28:14.351Z</time>
      </trkpt>
      <trkpt lat="44.6487" lon="3.23096">
        <ele>1101</ele>
        <time>2019-05-30T13:28:19.339Z</time>
      </trkpt>
      <trkpt lat="44.64874" lon="3.23092">
        <ele>1101</ele>
        <time>2019-05-30T13:28:24.378Z</time>
      </trkpt>
      <trkpt lat="44.64877" lon="3.23089">
        <ele>1100</ele>
        <time>2019-05-30T13:28:29.333Z</time>
      </trkpt>
      <trkpt lat="44.64881" lon="3.23087">
        <ele>1100</ele>
        <time>2019-05-30T13:28:33.338Z</time>
      </trkpt>
      <trkpt lat="44.64886" lon="3.23085">
        <ele>1100</ele>
        <time>2019-05-30T13:28:38.341Z</time>
      </trkpt>
      <trkpt lat="44.64891" lon="3.23083">
        <ele>1100</ele>
        <time>2019-05-30T13:28:43.336Z</time>
      </trkpt>
      <trkpt lat="44.64895" lon="3.23078">
        <ele>1100</ele>
        <time>2019-05-30T13:28:47.377Z</time>
      </trkpt>
      <trkpt lat="44.64901" lon="3.23077">
        <ele>1100</ele>
        <time>2019-05-30T13:28:52.348Z</time>
      </trkpt>
      <trkpt lat="44.64906" lon="3.2307">
        <ele>1098</ele>
        <time>2019-05-30T13:28:57.343Z</time>
      </trkpt>
      <trkpt lat="44.64909" lon="3.23067">
        <ele>1100</ele>
        <time>2019-05-30T13:29:02.342Z</time>
      </trkpt>
      <trkpt lat="44.64914" lon="3.23064">
        <ele>1100</ele>
        <time>2019-05-30T13:29:06.337Z</time>
      </trkpt>
      <trkpt lat="44.64922" lon="3.23062">
        <ele>1100</ele>
        <time>2019-05-30T13:29:11.340Z</time>
      </trkpt>
      <trkpt lat="44.64927" lon="3.23061">
        <ele>1100</ele>
        <time>2019-05-30T13:29:16.344Z</time>
      </trkpt>
      <trkpt lat="44.64932" lon="3.23058">
        <ele>1100</ele>
        <time>2019-05-30T13:29:21.347Z</time>
      </trkpt>
      <trkpt lat="44.64936" lon="3.23054">
        <ele>1100</ele>
        <time>2019-05-30T13:29:25.372Z</time>
      </trkpt>
      <trkpt lat="44.64942" lon="3.2305">
        <ele>1100</ele>
        <time>2019-05-30T13:29:30.340Z</time>
      </trkpt>
      <trkpt lat="44.64943" lon="3.23048">
        <ele>1100</ele>
        <time>2019-05-30T13:29:34.352Z</time>
      </trkpt>
      <trkpt lat="44.64949" lon="3.23046">
        <ele>1100</ele>
        <time>2019-05-30T13:29:39.337Z</time>
      </trkpt>
      <trkpt lat="44.64955" lon="3.23042">
        <ele>1100</ele>
        <time>2019-05-30T13:29:44.348Z</time>
      </trkpt>
      <trkpt lat="44.64961" lon="3.2304">
        <ele>1102</ele>
        <time>2019-05-30T13:29:49.368Z</time>
      </trkpt>
      <trkpt lat="44.64966" lon="3.23037">
        <ele>1102</ele>
        <time>2019-05-30T13:29:54.348Z</time>
      </trkpt>
      <trkpt lat="44.64971" lon="3.23034">
        <ele>1102</ele>
        <time>2019-05-30T13:29:58.372Z</time>
      </trkpt>
      <trkpt lat="44.64977" lon="3.23031">
        <ele>1102</ele>
        <time>2019-05-30T13:30:03.341Z</time>
      </trkpt>
      <trkpt lat="44.64982" lon="3.23029">
        <ele>1102</ele>
        <time>2019-05-30T13:30:08.337Z</time>
      </trkpt>
      <trkpt lat="44.64985" lon="3.23027">
        <ele>1102</ele>
        <time>2019-05-30T13:30:12.345Z</time>
      </trkpt>
      <trkpt lat="44.64989" lon="3.23024">
        <ele>1102</ele>
        <time>2019-05-30T13:30:17.335Z</time>
      </trkpt>
      <trkpt lat="44.64997" lon="3.23024">
        <ele>1102</ele>
        <time>2019-05-30T13:30:22.347Z</time>
      </trkpt>
      <trkpt lat="44.65002" lon="3.23021">
        <ele>1102</ele>
        <time>2019-05-30T13:30:26.377Z</time>
      </trkpt>
      <trkpt lat="44.65008" lon="3.23017">
        <ele>1102</ele>
        <time>2019-05-30T13:30:31.343Z</time>
      </trkpt>
      <trkpt lat="44.65012" lon="3.23017">
        <ele>1102</ele>
        <time>2019-05-30T13:30:35.341Z</time>
      </trkpt>
      <trkpt lat="44.65017" lon="3.23013">
        <ele>1103</ele>
        <time>2019-05-30T13:30:40.346Z</time>
      </trkpt>
      <trkpt lat="44.65022" lon="3.23009">
        <ele>1103</ele>
        <time>2019-05-30T13:30:45.337Z</time>
      </trkpt>
      <trkpt lat="44.65028" lon="3.23007">
        <ele>1103</ele>
        <time>2019-05-30T13:30:49.394Z</time>
      </trkpt>
      <trkpt lat="44.65034" lon="3.23005">
        <ele>1103</ele>
        <time>2019-05-30T13:30:54.346Z</time>
      </trkpt>
      <trkpt lat="44.65041" lon="3.23002">
        <ele>1103</ele>
        <time>2019-05-30T13:30:59.339Z</time>
      </trkpt>
      <trkpt lat="44.65045" lon="3.22999">
        <ele>1105</ele>
        <time>2019-05-30T13:31:03.344Z</time>
      </trkpt>
      <trkpt lat="44.65048" lon="3.22993">
        <ele>1105</ele>
        <time>2019-05-30T13:31:08.347Z</time>
      </trkpt>
      <trkpt lat="44.65048" lon="3.22993">
        <ele>1105</ele>
        <time>2019-05-30T13:31:13.347Z</time>
      </trkpt>
      <trkpt lat="44.65052" lon="3.22991">
        <ele>1105</ele>
        <time>2019-05-30T13:31:23.340Z</time>
      </trkpt>
      <trkpt lat="44.65056" lon="3.22992">
        <ele>1105</ele>
        <time>2019-05-30T13:31:27.342Z</time>
      </trkpt>
      <trkpt lat="44.6506" lon="3.2299">
        <ele>1105</ele>
        <time>2019-05-30T13:31:31.376Z</time>
      </trkpt>
      <trkpt lat="44.65066" lon="3.22987">
        <ele>1105</ele>
        <time>2019-05-30T13:31:36.345Z</time>
      </trkpt>
      <trkpt lat="44.65072" lon="3.22983">
        <ele>1106</ele>
        <time>2019-05-30T13:31:41.345Z</time>
      </trkpt>
      <trkpt lat="44.65075" lon="3.22981">
        <ele>1106</ele>
        <time>2019-05-30T13:31:45.372Z</time>
      </trkpt>
      <trkpt lat="44.6508" lon="3.22979">
        <ele>1106</ele>
        <time>2019-05-30T13:31:50.378Z</time>
      </trkpt>
      <trkpt lat="44.65085" lon="3.22975">
        <ele>1106</ele>
        <time>2019-05-30T13:31:55.343Z</time>
      </trkpt>
      <trkpt lat="44.65088" lon="3.22974">
        <ele>1106</ele>
        <time>2019-05-30T13:32:00.367Z</time>
      </trkpt>
      <trkpt lat="44.6509" lon="3.22973">
        <ele>1106</ele>
        <time>2019-05-30T13:32:05.345Z</time>
      </trkpt>
      <trkpt lat="44.65096" lon="3.22967">
        <ele>1106</ele>
        <time>2019-05-30T13:32:10.341Z</time>
      </trkpt>
      <trkpt lat="44.65103" lon="3.22961">
        <ele>1109</ele>
        <time>2019-05-30T13:32:15.341Z</time>
      </trkpt>
      <trkpt lat="44.65108" lon="3.2296">
        <ele>1109</ele>
        <time>2019-05-30T13:32:20.376Z</time>
      </trkpt>
      <trkpt lat="44.65112" lon="3.22956">
        <ele>1109</ele>
        <time>2019-05-30T13:32:25.346Z</time>
      </trkpt>
      <trkpt lat="44.65117" lon="3.22952">
        <ele>1109</ele>
        <time>2019-05-30T13:32:30.345Z</time>
      </trkpt>
      <trkpt lat="44.65124" lon="3.22947">
        <ele>1109</ele>
        <time>2019-05-30T13:32:35.346Z</time>
      </trkpt>
      <trkpt lat="44.65127" lon="3.22945">
        <ele>1113</ele>
        <time>2019-05-30T13:32:39.357Z</time>
      </trkpt>
      <trkpt lat="44.65133" lon="3.22943">
        <ele>1113</ele>
        <time>2019-05-30T13:32:44.347Z</time>
      </trkpt>
      <trkpt lat="44.65136" lon="3.22941">
        <ele>1113</ele>
        <time>2019-05-30T13:32:49.340Z</time>
      </trkpt>
      <trkpt lat="44.6514" lon="3.22938">
        <ele>1113</ele>
        <time>2019-05-30T13:32:54.340Z</time>
      </trkpt>
      <trkpt lat="44.65144" lon="3.22934">
        <ele>1113</ele>
        <time>2019-05-30T13:32:58.351Z</time>
      </trkpt>
      <trkpt lat="44.6515" lon="3.2293">
        <ele>1112</ele>
        <time>2019-05-30T13:33:03.340Z</time>
      </trkpt>
      <trkpt lat="44.65157" lon="3.22927">
        <ele>1113</ele>
        <time>2019-05-30T13:33:08.345Z</time>
      </trkpt>
      <trkpt lat="44.65159" lon="3.22923">
        <ele>1113</ele>
        <time>2019-05-30T13:33:12.364Z</time>
      </trkpt>
      <trkpt lat="44.65162" lon="3.22919">
        <ele>1113</ele>
        <time>2019-05-30T13:33:17.344Z</time>
      </trkpt>
      <trkpt lat="44.65165" lon="3.22917">
        <ele>1113</ele>
        <time>2019-05-30T13:33:22.347Z</time>
      </trkpt>
      <trkpt lat="44.65169" lon="3.22916">
        <ele>1113</ele>
        <time>2019-05-30T13:33:27.373Z</time>
      </trkpt>
      <trkpt lat="44.65176" lon="3.22911">
        <ele>1113</ele>
        <time>2019-05-30T13:33:32.347Z</time>
      </trkpt>
      <trkpt lat="44.65181" lon="3.22907">
        <ele>1113</ele>
        <time>2019-05-30T13:33:36.356Z</time>
      </trkpt>
      <trkpt lat="44.65185" lon="3.22905">
        <ele>1115</ele>
        <time>2019-05-30T13:33:41.338Z</time>
      </trkpt>
      <trkpt lat="44.6519" lon="3.22903">
        <ele>1114</ele>
        <time>2019-05-30T13:33:46.357Z</time>
      </trkpt>
      <trkpt lat="44.65197" lon="3.22898">
        <ele>1114</ele>
        <time>2019-05-30T13:33:51.350Z</time>
      </trkpt>
      <trkpt lat="44.65201" lon="3.22897">
        <ele>1114</ele>
        <time>2019-05-30T13:33:55.370Z</time>
      </trkpt>
      <trkpt lat="44.65207" lon="3.22893">
        <ele>1114</ele>
        <time>2019-05-30T13:34:00.348Z</time>
      </trkpt>
      <trkpt lat="44.65211" lon="3.22889">
        <ele>1115</ele>
        <time>2019-05-30T13:34:04.371Z</time>
      </trkpt>
      <trkpt lat="44.65216" lon="3.22885">
        <ele>1115</ele>
        <time>2019-05-30T13:34:09.344Z</time>
      </trkpt>
      <trkpt lat="44.6522" lon="3.22884">
        <ele>1115</ele>
        <time>2019-05-30T13:34:14.340Z</time>
      </trkpt>
      <trkpt lat="44.65224" lon="3.22882">
        <ele>1115</ele>
        <time>2019-05-30T13:34:19.340Z</time>
      </trkpt>
      <trkpt lat="44.65229" lon="3.22882">
        <ele>1115</ele>
        <time>2019-05-30T13:34:24.366Z</time>
      </trkpt>
      <trkpt lat="44.65234" lon="3.2288">
        <ele>1115</ele>
        <time>2019-05-30T13:34:29.356Z</time>
      </trkpt>
      <trkpt lat="44.6524" lon="3.22879">
        <ele>1116</ele>
        <time>2019-05-30T13:34:34.378Z</time>
      </trkpt>
      <trkpt lat="44.65245" lon="3.22876">
        <ele>1116</ele>
        <time>2019-05-30T13:34:39.364Z</time>
      </trkpt>
      <trkpt lat="44.65251" lon="3.22871">
        <ele>1114</ele>
        <time>2019-05-30T13:34:44.342Z</time>
      </trkpt>
      <trkpt lat="44.65256" lon="3.22866">
        <ele>1114</ele>
        <time>2019-05-30T13:34:48.345Z</time>
      </trkpt>
      <trkpt lat="44.65261" lon="3.22863">
        <ele>1114</ele>
        <time>2019-05-30T13:34:53.345Z</time>
      </trkpt>
      <trkpt lat="44.65264" lon="3.22862">
        <ele>1118</ele>
        <time>2019-05-30T13:34:58.343Z</time>
      </trkpt>
      <trkpt lat="44.65269" lon="3.22859">
        <ele>1118</ele>
        <time>2019-05-30T13:35:02.350Z</time>
      </trkpt>
      <trkpt lat="44.65274" lon="3.22854">
        <ele>1118</ele>
        <time>2019-05-30T13:35:07.346Z</time>
      </trkpt>
      <trkpt lat="44.6528" lon="3.22852">
        <ele>1118</ele>
        <time>2019-05-30T13:35:12.373Z</time>
      </trkpt>
      <trkpt lat="44.65287" lon="3.2285">
        <ele>1118</ele>
        <time>2019-05-30T13:35:17.354Z</time>
      </trkpt>
      <trkpt lat="44.65291" lon="3.22845">
        <ele>1116</ele>
        <time>2019-05-30T13:35:22.360Z</time>
      </trkpt>
      <trkpt lat="44.65295" lon="3.22842">
        <ele>1119</ele>
        <time>2019-05-30T13:35:27.368Z</time>
      </trkpt>
      <trkpt lat="44.65299" lon="3.22838">
        <ele>1119</ele>
        <time>2019-05-30T13:35:32.340Z</time>
      </trkpt>
      <trkpt lat="44.65305" lon="3.22833">
        <ele>1119</ele>
        <time>2019-05-30T13:35:37.348Z</time>
      </trkpt>
      <trkpt lat="44.65309" lon="3.22828">
        <ele>1119</ele>
        <time>2019-05-30T13:35:42.340Z</time>
      </trkpt>
      <trkpt lat="44.65313" lon="3.22821">
        <ele>1119</ele>
        <time>2019-05-30T13:35:47.346Z</time>
      </trkpt>
      <trkpt lat="44.65314" lon="3.22814">
        <ele>1117</ele>
        <time>2019-05-30T13:35:52.345Z</time>
      </trkpt>
      <trkpt lat="44.65315" lon="3.22809">
        <ele>1117</ele>
        <time>2019-05-30T13:35:56.358Z</time>
      </trkpt>
      <trkpt lat="44.65318" lon="3.22803">
        <ele>1117</ele>
        <time>2019-05-30T13:36:01.355Z</time>
      </trkpt>
      <trkpt lat="44.65322" lon="3.22796">
        <ele>1120</ele>
        <time>2019-05-30T13:36:06.341Z</time>
      </trkpt>
      <trkpt lat="44.65325" lon="3.22791">
        <ele>1118</ele>
        <time>2019-05-30T13:36:11.347Z</time>
      </trkpt>
      <trkpt lat="44.65325" lon="3.22784">
        <ele>1118</ele>
        <time>2019-05-30T13:36:15.348Z</time>
      </trkpt>
      <trkpt lat="44.65327" lon="3.22778">
        <ele>1118</ele>
        <time>2019-05-30T13:36:20.341Z</time>
      </trkpt>
      <trkpt lat="44.65328" lon="3.22773">
        <ele>1118</ele>
        <time>2019-05-30T13:36:24.346Z</time>
      </trkpt>
      <trkpt lat="44.6533" lon="3.2277">
        <ele>1118</ele>
        <time>2019-05-30T13:36:28.374Z</time>
      </trkpt>
      <trkpt lat="44.65331" lon="3.22764">
        <ele>1117</ele>
        <time>2019-05-30T13:36:33.337Z</time>
      </trkpt>
      <trkpt lat="44.65331" lon="3.22759">
        <ele>1117</ele>
        <time>2019-05-30T13:36:37.377Z</time>
      </trkpt>
      <trkpt lat="44.6533" lon="3.22751">
        <ele>1117</ele>
        <time>2019-05-30T13:36:42.353Z</time>
      </trkpt>
      <trkpt lat="44.65332" lon="3.22751">
        <ele>1117</ele>
        <time>2019-05-30T13:37:21.355Z</time>
      </trkpt>
      <trkpt lat="44.65333" lon="3.22744">
        <ele>1117</ele>
        <time>2019-05-30T13:37:40.370Z</time>
      </trkpt>
      <trkpt lat="44.65334" lon="3.22741">
        <ele>1117</ele>
        <time>2019-05-30T13:37:45.346Z</time>
      </trkpt>
      <trkpt lat="44.65335" lon="3.22737">
        <ele>1117</ele>
        <time>2019-05-30T13:37:59.347Z</time>
      </trkpt>
      <trkpt lat="44.65338" lon="3.22731">
        <ele>1116</ele>
        <time>2019-05-30T13:38:04.335Z</time>
      </trkpt>
      <trkpt lat="44.65338" lon="3.22731">
        <ele>1116</ele>
        <time>2019-05-30T13:38:09.347Z</time>
      </trkpt>
      <trkpt lat="44.65342" lon="3.22726">
        <ele>1116</ele>
        <time>2019-05-30T13:38:14.356Z</time>
      </trkpt>
      <trkpt lat="44.65346" lon="3.22722">
        <ele>1116</ele>
        <time>2019-05-30T13:38:19.326Z</time>
      </trkpt>
      <trkpt lat="44.65348" lon="3.2272">
        <ele>1118</ele>
        <time>2019-05-30T13:38:24.329Z</time>
      </trkpt>
      <trkpt lat="44.65352" lon="3.22717">
        <ele>1118</ele>
        <time>2019-05-30T13:38:29.322Z</time>
      </trkpt>
      <trkpt lat="44.65352" lon="3.22717">
        <ele>1118</ele>
        <time>2019-05-30T13:38:34.341Z</time>
      </trkpt>
      <trkpt lat="44.65355" lon="3.22713">
        <ele>1118</ele>
        <time>2019-05-30T13:38:43.345Z</time>
      </trkpt>
      <trkpt lat="44.65357" lon="3.22709">
        <ele>1118</ele>
        <time>2019-05-30T13:38:48.349Z</time>
      </trkpt>
      <trkpt lat="44.6536" lon="3.22709">
        <ele>1118</ele>
        <time>2019-05-30T13:38:53.336Z</time>
      </trkpt>
      <trkpt lat="44.65364" lon="3.22708">
        <ele>1118</ele>
        <time>2019-05-30T13:38:57.347Z</time>
      </trkpt>
      <trkpt lat="44.65365" lon="3.22706">
        <ele>1118</ele>
        <time>2019-05-30T13:39:01.353Z</time>
      </trkpt>
      <trkpt lat="44.65371" lon="3.22698">
        <ele>1118</ele>
        <time>2019-05-30T13:39:11.350Z</time>
      </trkpt>
      <trkpt lat="44.65371" lon="3.22696">
        <ele>1118</ele>
        <time>2019-05-30T13:39:16.342Z</time>
      </trkpt>
      <trkpt lat="44.65375" lon="3.22688">
        <ele>1118</ele>
        <time>2019-05-30T13:39:21.336Z</time>
      </trkpt>
      <trkpt lat="44.65377" lon="3.22677">
        <ele>1119</ele>
        <time>2019-05-30T13:39:25.348Z</time>
      </trkpt>
      <trkpt lat="44.65378" lon="3.2267">
        <ele>1119</ele>
        <time>2019-05-30T13:39:30.338Z</time>
      </trkpt>
      <trkpt lat="44.65381" lon="3.22663">
        <ele>1119</ele>
        <time>2019-05-30T13:39:35.348Z</time>
      </trkpt>
      <trkpt lat="44.65384" lon="3.22659">
        <ele>1119</ele>
        <time>2019-05-30T13:39:39.360Z</time>
      </trkpt>
      <trkpt lat="44.65384" lon="3.22655">
        <ele>1119</ele>
        <time>2019-05-30T13:39:43.359Z</time>
      </trkpt>
      <trkpt lat="44.65383" lon="3.22652">
        <ele>1119</ele>
        <time>2019-05-30T13:39:48.346Z</time>
      </trkpt>
      <trkpt lat="44.65383" lon="3.22646">
        <ele>1119</ele>
        <time>2019-05-30T13:39:53.321Z</time>
      </trkpt>
      <trkpt lat="44.65383" lon="3.22645">
        <ele>1119</ele>
        <time>2019-05-30T13:39:57.333Z</time>
      </trkpt>
      <trkpt lat="44.65385" lon="3.22642">
        <ele>1119</ele>
        <time>2019-05-30T13:40:02.335Z</time>
      </trkpt>
      <trkpt lat="44.65384" lon="3.22634">
        <ele>1119</ele>
        <time>2019-05-30T13:40:07.363Z</time>
      </trkpt>
      <trkpt lat="44.65384" lon="3.22626">
        <ele>1119</ele>
        <time>2019-05-30T13:40:12.355Z</time>
      </trkpt>
      <trkpt lat="44.65382" lon="3.22622">
        <ele>1117</ele>
        <time>2019-05-30T13:40:17.334Z</time>
      </trkpt>
      <trkpt lat="44.65381" lon="3.22618">
        <ele>1117</ele>
        <time>2019-05-30T13:40:22.329Z</time>
      </trkpt>
      <trkpt lat="44.65384" lon="3.22612">
        <ele>1117</ele>
        <time>2019-05-30T13:40:26.363Z</time>
      </trkpt>
      <trkpt lat="44.65385" lon="3.22607">
        <ele>1117</ele>
        <time>2019-05-30T13:40:31.365Z</time>
      </trkpt>
      <trkpt lat="44.65382" lon="3.22606">
        <ele>1117</ele>
        <time>2019-05-30T13:41:10.323Z</time>
      </trkpt>
      <trkpt lat="44.65382" lon="3.22607">
        <ele>1117</ele>
        <time>2019-05-30T13:41:14.348Z</time>
      </trkpt>
      <trkpt lat="44.6538" lon="3.22597">
        <ele>1117</ele>
        <time>2019-05-30T13:41:19.344Z</time>
      </trkpt>
      <trkpt lat="44.6538" lon="3.22597">
        <ele>1117</ele>
        <time>2019-05-30T13:41:23.343Z</time>
      </trkpt>
      <trkpt lat="44.6538" lon="3.22596">
        <ele>1117</ele>
        <time>2019-05-30T13:41:37.349Z</time>
      </trkpt>
      <trkpt lat="44.65379" lon="3.2259">
        <ele>1117</ele>
        <time>2019-05-30T13:41:42.350Z</time>
      </trkpt>
      <trkpt lat="44.65382" lon="3.22585">
        <ele>1117</ele>
        <time>2019-05-30T13:41:47.355Z</time>
      </trkpt>
      <trkpt lat="44.65383" lon="3.2258">
        <ele>1117</ele>
        <time>2019-05-30T13:41:52.347Z</time>
      </trkpt>
      <trkpt lat="44.65384" lon="3.22576">
        <ele>1117</ele>
        <time>2019-05-30T13:41:56.352Z</time>
      </trkpt>
      <trkpt lat="44.65386" lon="3.22572">
        <ele>1117</ele>
        <time>2019-05-30T13:42:01.345Z</time>
      </trkpt>
      <trkpt lat="44.65388" lon="3.22566">
        <ele>1116</ele>
        <time>2019-05-30T13:42:05.352Z</time>
      </trkpt>
      <trkpt lat="44.6539" lon="3.22558">
        <ele>1116</ele>
        <time>2019-05-30T13:42:10.321Z</time>
      </trkpt>
      <trkpt lat="44.65391" lon="3.22557">
        <ele>1116</ele>
        <time>2019-05-30T13:42:15.321Z</time>
      </trkpt>
      <trkpt lat="44.65391" lon="3.22552">
        <ele>1116</ele>
        <time>2019-05-30T13:42:24.320Z</time>
      </trkpt>
      <trkpt lat="44.65395" lon="3.22547">
        <ele>1116</ele>
        <time>2019-05-30T13:42:28.347Z</time>
      </trkpt>
      <trkpt lat="44.65396" lon="3.22547">
        <ele>1116</ele>
        <time>2019-05-30T13:42:33.345Z</time>
      </trkpt>
      <trkpt lat="44.65398" lon="3.22543">
        <ele>1116</ele>
        <time>2019-05-30T13:42:42.342Z</time>
      </trkpt>
      <trkpt lat="44.65401" lon="3.22541">
        <ele>1114</ele>
        <time>2019-05-30T13:42:47.345Z</time>
      </trkpt>
      <trkpt lat="44.65406" lon="3.22533">
        <ele>1114</ele>
        <time>2019-05-30T13:42:52.320Z</time>
      </trkpt>
      <trkpt lat="44.65409" lon="3.22527">
        <ele>1114</ele>
        <time>2019-05-30T13:43:01.378Z</time>
      </trkpt>
      <trkpt lat="44.6541" lon="3.2252">
        <ele>1114</ele>
        <time>2019-05-30T13:43:06.332Z</time>
      </trkpt>
      <trkpt lat="44.6541" lon="3.2251">
        <ele>1112</ele>
        <time>2019-05-30T13:43:10.348Z</time>
      </trkpt>
      <trkpt lat="44.65413" lon="3.22506">
        <ele>1112</ele>
        <time>2019-05-30T13:43:15.338Z</time>
      </trkpt>
      <trkpt lat="44.65415" lon="3.22501">
        <ele>1112</ele>
        <time>2019-05-30T13:44:01.338Z</time>
      </trkpt>
      <trkpt lat="44.65417" lon="3.22496">
        <ele>1112</ele>
        <time>2019-05-30T13:44:05.346Z</time>
      </trkpt>
      <trkpt lat="44.65418" lon="3.22494">
        <ele>1112</ele>
        <time>2019-05-30T13:44:10.347Z</time>
      </trkpt>
      <trkpt lat="44.65422" lon="3.22488">
        <ele>1112</ele>
        <time>2019-05-30T13:44:15.348Z</time>
      </trkpt>
      <trkpt lat="44.65423" lon="3.22481">
        <ele>1109</ele>
        <time>2019-05-30T13:44:20.345Z</time>
      </trkpt>
      <trkpt lat="44.65425" lon="3.22475">
        <ele>1109</ele>
        <time>2019-05-30T13:44:25.341Z</time>
      </trkpt>
      <trkpt lat="44.65431" lon="3.22467">
        <ele>1106</ele>
        <time>2019-05-30T13:44:30.345Z</time>
      </trkpt>
      <trkpt lat="44.65434" lon="3.22463">
        <ele>1106</ele>
        <time>2019-05-30T13:44:35.358Z</time>
      </trkpt>
      <trkpt lat="44.65435" lon="3.2246">
        <ele>1106</ele>
        <time>2019-05-30T13:44:40.348Z</time>
      </trkpt>
      <trkpt lat="44.65436" lon="3.22451">
        <ele>1100</ele>
        <time>2019-05-30T13:44:49.340Z</time>
      </trkpt>
      <trkpt lat="44.65437" lon="3.22446">
        <ele>1100</ele>
        <time>2019-05-30T13:44:53.347Z</time>
      </trkpt>
      <trkpt lat="44.65438" lon="3.22438">
        <ele>1100</ele>
        <time>2019-05-30T13:44:58.356Z</time>
      </trkpt>
      <trkpt lat="44.65441" lon="3.22432">
        <ele>1100</ele>
        <time>2019-05-30T13:45:03.348Z</time>
      </trkpt>
      <trkpt lat="44.65442" lon="3.22425">
        <ele>1097</ele>
        <time>2019-05-30T13:45:07.370Z</time>
      </trkpt>
      <trkpt lat="44.65441" lon="3.22423">
        <ele>1097</ele>
        <time>2019-05-30T13:45:12.339Z</time>
      </trkpt>
      <trkpt lat="44.65441" lon="3.22419">
        <ele>1097</ele>
        <time>2019-05-30T13:45:17.347Z</time>
      </trkpt>
      <trkpt lat="44.65443" lon="3.22418">
        <ele>1097</ele>
        <time>2019-05-30T13:45:22.342Z</time>
      </trkpt>
      <trkpt lat="44.65444" lon="3.22417">
        <ele>1097</ele>
        <time>2019-05-30T13:45:27.356Z</time>
      </trkpt>
      <trkpt lat="44.6545" lon="3.22408">
        <ele>1097</ele>
        <time>2019-05-30T13:45:32.351Z</time>
      </trkpt>
      <trkpt lat="44.6545" lon="3.22406">
        <ele>1097</ele>
        <time>2019-05-30T13:45:37.339Z</time>
      </trkpt>
      <trkpt lat="44.65452" lon="3.224">
        <ele>1096</ele>
        <time>2019-05-30T13:45:42.335Z</time>
      </trkpt>
      <trkpt lat="44.65452" lon="3.22395">
        <ele>1096</ele>
        <time>2019-05-30T13:45:47.329Z</time>
      </trkpt>
      <trkpt lat="44.6545" lon="3.22388">
        <ele>1096</ele>
        <time>2019-05-30T13:45:52.353Z</time>
      </trkpt>
      <trkpt lat="44.65452" lon="3.22385">
        <ele>1096</ele>
        <time>2019-05-30T13:45:57.337Z</time>
      </trkpt>
      <trkpt lat="44.65452" lon="3.22384">
        <ele>1096</ele>
        <time>2019-05-30T13:46:02.338Z</time>
      </trkpt>
      <trkpt lat="44.65449" lon="3.22379">
        <ele>1096</ele>
        <time>2019-05-30T13:46:07.361Z</time>
      </trkpt>
      <trkpt lat="44.65448" lon="3.22378">
        <ele>1096</ele>
        <time>2019-05-30T13:46:12.362Z</time>
      </trkpt>
      <trkpt lat="44.65444" lon="3.22373">
        <ele>1096</ele>
        <time>2019-05-30T13:46:17.332Z</time>
      </trkpt>
      <trkpt lat="44.65443" lon="3.22369">
        <ele>1096</ele>
        <time>2019-05-30T13:46:22.370Z</time>
      </trkpt>
      <trkpt lat="44.65439" lon="3.22366">
        <ele>1096</ele>
        <time>2019-05-30T13:46:27.337Z</time>
      </trkpt>
      <trkpt lat="44.65439" lon="3.22366">
        <ele>1096</ele>
        <time>2019-05-30T13:46:32.332Z</time>
      </trkpt>
      <trkpt lat="44.65435" lon="3.22361">
        <ele>1096</ele>
        <time>2019-05-30T13:46:42.341Z</time>
      </trkpt>
      <trkpt lat="44.65429" lon="3.22355">
        <ele>1097</ele>
        <time>2019-05-30T13:47:57.362Z</time>
      </trkpt>
      <trkpt lat="44.65426" lon="3.22349">
        <ele>1097</ele>
        <time>2019-05-30T13:48:12.350Z</time>
      </trkpt>
      <trkpt lat="44.65419" lon="3.22343">
        <ele>1094</ele>
        <time>2019-05-30T13:48:17.347Z</time>
      </trkpt>
      <trkpt lat="44.65414" lon="3.22341">
        <ele>1094</ele>
        <time>2019-05-30T13:48:22.343Z</time>
      </trkpt>
      <trkpt lat="44.6541" lon="3.22335">
        <ele>1094</ele>
        <time>2019-05-30T13:48:26.344Z</time>
      </trkpt>
      <trkpt lat="44.6541" lon="3.22334">
        <ele>1094</ele>
        <time>2019-05-30T13:48:31.373Z</time>
      </trkpt>
      <trkpt lat="44.65407" lon="3.22325">
        <ele>1094</ele>
        <time>2019-05-30T13:49:03.349Z</time>
      </trkpt>
      <trkpt lat="44.65404" lon="3.22319">
        <ele>1091</ele>
        <time>2019-05-30T13:49:07.371Z</time>
      </trkpt>
      <trkpt lat="44.65402" lon="3.22312">
        <ele>1093</ele>
        <time>2019-05-30T13:49:12.344Z</time>
      </trkpt>
      <trkpt lat="44.65403" lon="3.2231">
        <ele>1093</ele>
        <time>2019-05-30T13:49:17.342Z</time>
      </trkpt>
      <trkpt lat="44.65401" lon="3.2231">
        <ele>1093</ele>
        <time>2019-05-30T13:49:26.345Z</time>
      </trkpt>
      <trkpt lat="44.65398" lon="3.22303">
        <ele>1093</ele>
        <time>2019-05-30T13:49:31.347Z</time>
      </trkpt>
      <trkpt lat="44.65395" lon="3.22298">
        <ele>1093</ele>
        <time>2019-05-30T13:49:35.377Z</time>
      </trkpt>
      <trkpt lat="44.65393" lon="3.22294">
        <ele>1093</ele>
        <time>2019-05-30T13:49:45.354Z</time>
      </trkpt>
      <trkpt lat="44.65392" lon="3.22295">
        <ele>1093</ele>
        <time>2019-05-30T13:49:54.331Z</time>
      </trkpt>
      <trkpt lat="44.65387" lon="3.22294">
        <ele>1093</ele>
        <time>2019-05-30T13:49:58.331Z</time>
      </trkpt>
      <trkpt lat="44.65385" lon="3.22293">
        <ele>1093</ele>
        <time>2019-05-30T13:50:08.344Z</time>
      </trkpt>
      <trkpt lat="44.65374" lon="3.22285">
        <ele>1088</ele>
        <time>2019-05-30T13:50:27.331Z</time>
      </trkpt>
      <trkpt lat="44.65367" lon="3.22277">
        <ele>1088</ele>
        <time>2019-05-30T13:50:31.353Z</time>
      </trkpt>
      <trkpt lat="44.65362" lon="3.22268">
        <ele>1088</ele>
        <time>2019-05-30T13:50:36.341Z</time>
      </trkpt>
      <trkpt lat="44.65359" lon="3.22265">
        <ele>1088</ele>
        <time>2019-05-30T13:50:40.350Z</time>
      </trkpt>
      <trkpt lat="44.65357" lon="3.22261">
        <ele>1086</ele>
        <time>2019-05-30T13:50:45.336Z</time>
      </trkpt>
      <trkpt lat="44.65355" lon="3.22258">
        <ele>1086</ele>
        <time>2019-05-30T13:50:49.348Z</time>
      </trkpt>
      <trkpt lat="44.65355" lon="3.22258">
        <ele>1086</ele>
        <time>2019-05-30T13:50:53.359Z</time>
      </trkpt>
      <trkpt lat="44.65352" lon="3.22255">
        <ele>1086</ele>
        <time>2019-05-30T13:50:57.376Z</time>
      </trkpt>
      <trkpt lat="44.65346" lon="3.22249">
        <ele>1090</ele>
        <time>2019-05-30T13:51:02.347Z</time>
      </trkpt>
      <trkpt lat="44.65343" lon="3.22247">
        <ele>1090</ele>
        <time>2019-05-30T13:51:07.347Z</time>
      </trkpt>
      <trkpt lat="44.65335" lon="3.22243">
        <ele>1090</ele>
        <time>2019-05-30T13:51:12.342Z</time>
      </trkpt>
      <trkpt lat="44.65328" lon="3.22245">
        <ele>1090</ele>
        <time>2019-05-30T13:51:17.334Z</time>
      </trkpt>
      <trkpt lat="44.65322" lon="3.22244">
        <ele>1090</ele>
        <time>2019-05-30T13:51:22.356Z</time>
      </trkpt>
      <trkpt lat="44.6532" lon="3.22241">
        <ele>1090</ele>
        <time>2019-05-30T13:51:26.359Z</time>
      </trkpt>
      <trkpt lat="44.65319" lon="3.22242">
        <ele>1093</ele>
        <time>2019-05-30T13:51:30.378Z</time>
      </trkpt>
      <trkpt lat="44.65316" lon="3.2224">
        <ele>1093</ele>
        <time>2019-05-30T13:51:35.347Z</time>
      </trkpt>
      <trkpt lat="44.65309" lon="3.22237">
        <ele>1093</ele>
        <time>2019-05-30T13:51:40.341Z</time>
      </trkpt>
      <trkpt lat="44.65304" lon="3.22236">
        <ele>1093</ele>
        <time>2019-05-30T13:51:45.341Z</time>
      </trkpt>
      <trkpt lat="44.65301" lon="3.22236">
        <ele>1090</ele>
        <time>2019-05-30T13:51:49.370Z</time>
      </trkpt>
      <trkpt lat="44.65297" lon="3.22236">
        <ele>1090</ele>
        <time>2019-05-30T13:51:54.346Z</time>
      </trkpt>
      <trkpt lat="44.65296" lon="3.22237">
        <ele>1093</ele>
        <time>2019-05-30T13:51:59.341Z</time>
      </trkpt>
      <trkpt lat="44.6529" lon="3.22237">
        <ele>1093</ele>
        <time>2019-05-30T13:52:03.354Z</time>
      </trkpt>
      <trkpt lat="44.65286" lon="3.22239">
        <ele>1093</ele>
        <time>2019-05-30T13:52:08.335Z</time>
      </trkpt>
      <trkpt lat="44.65281" lon="3.22234">
        <ele>1089</ele>
        <time>2019-05-30T13:52:12.347Z</time>
      </trkpt>
      <trkpt lat="44.65278" lon="3.22232">
        <ele>1089</ele>
        <time>2019-05-30T13:52:17.333Z</time>
      </trkpt>
      <trkpt lat="44.65274" lon="3.22233">
        <ele>1089</ele>
        <time>2019-05-30T13:52:21.357Z</time>
      </trkpt>
      <trkpt lat="44.65267" lon="3.2223">
        <ele>1089</ele>
        <time>2019-05-30T13:52:26.343Z</time>
      </trkpt>
      <trkpt lat="44.65261" lon="3.22229">
        <ele>1088</ele>
        <time>2019-05-30T13:52:31.367Z</time>
      </trkpt>
      <trkpt lat="44.65258" lon="3.22231">
        <ele>1088</ele>
        <time>2019-05-30T13:52:36.346Z</time>
      </trkpt>
      <trkpt lat="44.65256" lon="3.2223">
        <ele>1088</ele>
        <time>2019-05-30T13:52:41.339Z</time>
      </trkpt>
      <trkpt lat="44.6525" lon="3.2223">
        <ele>1088</ele>
        <time>2019-05-30T13:52:46.335Z</time>
      </trkpt>
      <trkpt lat="44.65243" lon="3.22229">
        <ele>1088</ele>
        <time>2019-05-30T13:52:51.346Z</time>
      </trkpt>
      <trkpt lat="44.65236" lon="3.22226">
        <ele>1088</ele>
        <time>2019-05-30T13:52:56.365Z</time>
      </trkpt>
      <trkpt lat="44.65231" lon="3.22224">
        <ele>1085</ele>
        <time>2019-05-30T13:53:01.369Z</time>
      </trkpt>
      <trkpt lat="44.65228" lon="3.22223">
        <ele>1085</ele>
        <time>2019-05-30T13:53:06.343Z</time>
      </trkpt>
      <trkpt lat="44.65225" lon="3.22218">
        <ele>1085</ele>
        <time>2019-05-30T13:53:11.344Z</time>
      </trkpt>
      <trkpt lat="44.65223" lon="3.22216">
        <ele>1085</ele>
        <time>2019-05-30T13:53:16.319Z</time>
      </trkpt>
      <trkpt lat="44.6522" lon="3.22216">
        <ele>1085</ele>
        <time>2019-05-30T13:53:21.323Z</time>
      </trkpt>
      <trkpt lat="44.65217" lon="3.22213">
        <ele>1085</ele>
        <time>2019-05-30T13:53:31.366Z</time>
      </trkpt>
      <trkpt lat="44.65217" lon="3.22204">
        <ele>1083</ele>
        <time>2019-05-30T13:53:36.347Z</time>
      </trkpt>
      <trkpt lat="44.65216" lon="3.22198">
        <ele>1083</ele>
        <time>2019-05-30T13:53:40.336Z</time>
      </trkpt>
      <trkpt lat="44.65214" lon="3.22193">
        <ele>1083</ele>
        <time>2019-05-30T13:53:45.327Z</time>
      </trkpt>
      <trkpt lat="44.65214" lon="3.22194">
        <ele>1083</ele>
        <time>2019-05-30T13:53:50.337Z</time>
      </trkpt>
      <trkpt lat="44.65211" lon="3.22188">
        <ele>1083</ele>
        <time>2019-05-30T13:54:10.333Z</time>
      </trkpt>
      <trkpt lat="44.65208" lon="3.22182">
        <ele>1082</ele>
        <time>2019-05-30T13:54:15.365Z</time>
      </trkpt>
      <trkpt lat="44.65207" lon="3.22179">
        <ele>1083</ele>
        <time>2019-05-30T13:54:20.325Z</time>
      </trkpt>
      <trkpt lat="44.65205" lon="3.2218">
        <ele>1083</ele>
        <time>2019-05-30T13:54:30.356Z</time>
      </trkpt>
      <trkpt lat="44.65205" lon="3.2218">
        <ele>1083</ele>
        <time>2019-05-30T13:54:35.353Z</time>
      </trkpt>
      <trkpt lat="44.65205" lon="3.22175">
        <ele>1083</ele>
        <time>2019-05-30T13:55:04.347Z</time>
      </trkpt>
      <trkpt lat="44.652" lon="3.22164">
        <ele>1083</ele>
        <time>2019-05-30T13:55:09.320Z</time>
      </trkpt>
      <trkpt lat="44.65195" lon="3.22161">
        <ele>1083</ele>
        <time>2019-05-30T13:55:13.338Z</time>
      </trkpt>
      <trkpt lat="44.65194" lon="3.22155">
        <ele>1083</ele>
        <time>2019-05-30T13:55:18.342Z</time>
      </trkpt>
      <trkpt lat="44.65194" lon="3.22151">
        <ele>1084</ele>
        <time>2019-05-30T13:55:22.348Z</time>
      </trkpt>
      <trkpt lat="44.65194" lon="3.22147">
        <ele>1084</ele>
        <time>2019-05-30T13:55:26.373Z</time>
      </trkpt>
      <trkpt lat="44.65193" lon="3.22139">
        <ele>1084</ele>
        <time>2019-05-30T13:55:36.345Z</time>
      </trkpt>
      <trkpt lat="44.65192" lon="3.22139">
        <ele>1084</ele>
        <time>2019-05-30T13:55:46.351Z</time>
      </trkpt>
      <trkpt lat="44.65191" lon="3.2214">
        <ele>1084</ele>
        <time>2019-05-30T13:55:51.343Z</time>
      </trkpt>
      <trkpt lat="44.6519" lon="3.22136">
        <ele>1084</ele>
        <time>2019-05-30T13:56:06.322Z</time>
      </trkpt>
      <trkpt lat="44.65192" lon="3.22127">
        <ele>1084</ele>
        <time>2019-05-30T13:56:11.336Z</time>
      </trkpt>
      <trkpt lat="44.6519" lon="3.22121">
        <ele>1084</ele>
        <time>2019-05-30T13:56:16.336Z</time>
      </trkpt>
      <trkpt lat="44.65189" lon="3.22115">
        <ele>1084</ele>
        <time>2019-05-30T13:56:21.364Z</time>
      </trkpt>
      <trkpt lat="44.65189" lon="3.22108">
        <ele>1084</ele>
        <time>2019-05-30T13:56:26.364Z</time>
      </trkpt>
      <trkpt lat="44.65188" lon="3.22107">
        <ele>1084</ele>
        <time>2019-05-30T13:56:31.360Z</time>
      </trkpt>
      <trkpt lat="44.65187" lon="3.22105">
        <ele>1084</ele>
        <time>2019-05-30T13:56:36.327Z</time>
      </trkpt>
      <trkpt lat="44.65183" lon="3.221">
        <ele>1084</ele>
        <time>2019-05-30T13:56:41.336Z</time>
      </trkpt>
      <trkpt lat="44.65178" lon="3.22094">
        <ele>1084</ele>
        <time>2019-05-30T13:56:45.357Z</time>
      </trkpt>
      <trkpt lat="44.65173" lon="3.22087">
        <ele>1084</ele>
        <time>2019-05-30T13:56:50.362Z</time>
      </trkpt>
      <trkpt lat="44.65169" lon="3.22085">
        <ele>1084</ele>
        <time>2019-05-30T13:56:55.337Z</time>
      </trkpt>
      <trkpt lat="44.65168" lon="3.22084">
        <ele>1084</ele>
        <time>2019-05-30T13:57:05.330Z</time>
      </trkpt>
      <trkpt lat="44.65165" lon="3.22079">
        <ele>1084</ele>
        <time>2019-05-30T13:57:09.364Z</time>
      </trkpt>
      <trkpt lat="44.65163" lon="3.22073">
        <ele>1084</ele>
        <time>2019-05-30T13:57:14.332Z</time>
      </trkpt>
      <trkpt lat="44.65161" lon="3.22072">
        <ele>1084</ele>
        <time>2019-05-30T13:57:18.369Z</time>
      </trkpt>
      <trkpt lat="44.65159" lon="3.22071">
        <ele>1084</ele>
        <time>2019-05-30T13:57:23.335Z</time>
      </trkpt>
      <trkpt lat="44.65157" lon="3.22067">
        <ele>1085</ele>
        <time>2019-05-30T13:57:32.366Z</time>
      </trkpt>
      <trkpt lat="44.65153" lon="3.22062">
        <ele>1085</ele>
        <time>2019-05-30T13:57:37.365Z</time>
      </trkpt>
      <trkpt lat="44.65149" lon="3.22059">
        <ele>1086</ele>
        <time>2019-05-30T13:57:41.372Z</time>
      </trkpt>
      <trkpt lat="44.65148" lon="3.22059">
        <ele>1086</ele>
        <time>2019-05-30T13:57:46.335Z</time>
      </trkpt>
      <trkpt lat="44.65144" lon="3.22057">
        <ele>1086</ele>
        <time>2019-05-30T13:57:51.338Z</time>
      </trkpt>
      <trkpt lat="44.65139" lon="3.2205">
        <ele>1086</ele>
        <time>2019-05-30T13:57:56.367Z</time>
      </trkpt>
      <trkpt lat="44.65136" lon="3.22047">
        <ele>1086</ele>
        <time>2019-05-30T13:58:01.368Z</time>
      </trkpt>
      <trkpt lat="44.65131" lon="3.22042">
        <ele>1087</ele>
        <time>2019-05-30T13:58:06.358Z</time>
      </trkpt>
      <trkpt lat="44.65127" lon="3.22036">
        <ele>1087</ele>
        <time>2019-05-30T13:58:11.362Z</time>
      </trkpt>
      <trkpt lat="44.65123" lon="3.22033">
        <ele>1087</ele>
        <time>2019-05-30T13:58:16.359Z</time>
      </trkpt>
      <trkpt lat="44.65119" lon="3.22034">
        <ele>1087</ele>
        <time>2019-05-30T13:58:21.341Z</time>
      </trkpt>
      <trkpt lat="44.65116" lon="3.22033">
        <ele>1087</ele>
        <time>2019-05-30T13:58:26.363Z</time>
      </trkpt>
      <trkpt lat="44.65111" lon="3.22032">
        <ele>1087</ele>
        <time>2019-05-30T13:58:31.364Z</time>
      </trkpt>
      <trkpt lat="44.65107" lon="3.22031">
        <ele>1087</ele>
        <time>2019-05-30T13:58:36.334Z</time>
      </trkpt>
      <trkpt lat="44.65103" lon="3.22029">
        <ele>1087</ele>
        <time>2019-05-30T13:58:40.346Z</time>
      </trkpt>
      <trkpt lat="44.65098" lon="3.22028">
        <ele>1087</ele>
        <time>2019-05-30T13:58:44.364Z</time>
      </trkpt>
      <trkpt lat="44.65095" lon="3.22026">
        <ele>1088</ele>
        <time>2019-05-30T13:58:49.364Z</time>
      </trkpt>
      <trkpt lat="44.6509" lon="3.22023">
        <ele>1088</ele>
        <time>2019-05-30T13:58:54.363Z</time>
      </trkpt>
      <trkpt lat="44.65084" lon="3.22021">
        <ele>1088</ele>
        <time>2019-05-30T13:58:59.336Z</time>
      </trkpt>
      <trkpt lat="44.65081" lon="3.22018">
        <ele>1088</ele>
        <time>2019-05-30T13:59:03.367Z</time>
      </trkpt>
      <trkpt lat="44.65079" lon="3.22015">
        <ele>1088</ele>
        <time>2019-05-30T13:59:08.326Z</time>
      </trkpt>
      <trkpt lat="44.65078" lon="3.22016">
        <ele>1088</ele>
        <time>2019-05-30T13:59:12.334Z</time>
      </trkpt>
      <trkpt lat="44.65076" lon="3.22014">
        <ele>1088</ele>
        <time>2019-05-30T13:59:17.369Z</time>
      </trkpt>
      <trkpt lat="44.65069" lon="3.22011">
        <ele>1089</ele>
        <time>2019-05-30T13:59:22.368Z</time>
      </trkpt>
      <trkpt lat="44.65064" lon="3.22009">
        <ele>1089</ele>
        <time>2019-05-30T13:59:27.331Z</time>
      </trkpt>
      <trkpt lat="44.65061" lon="3.22008">
        <ele>1089</ele>
        <time>2019-05-30T13:59:31.338Z</time>
      </trkpt>
      <trkpt lat="44.65059" lon="3.22004">
        <ele>1089</ele>
        <time>2019-05-30T13:59:36.337Z</time>
      </trkpt>
      <trkpt lat="44.65057" lon="3.22001">
        <ele>1089</ele>
        <time>2019-05-30T13:59:41.366Z</time>
      </trkpt>
      <trkpt lat="44.65055" lon="3.21995">
        <ele>1089</ele>
        <time>2019-05-30T13:59:46.327Z</time>
      </trkpt>
      <trkpt lat="44.65053" lon="3.21992">
        <ele>1089</ele>
        <time>2019-05-30T13:59:50.338Z</time>
      </trkpt>
      <trkpt lat="44.65052" lon="3.21989">
        <ele>1089</ele>
        <time>2019-05-30T13:59:59.364Z</time>
      </trkpt>
      <trkpt lat="44.65051" lon="3.21984">
        <ele>1089</ele>
        <time>2019-05-30T14:00:04.336Z</time>
      </trkpt>
      <trkpt lat="44.65051" lon="3.21981">
        <ele>1089</ele>
        <time>2019-05-30T14:00:09.347Z</time>
      </trkpt>
      <trkpt lat="44.65052" lon="3.21974">
        <ele>1089</ele>
        <time>2019-05-30T14:00:14.336Z</time>
      </trkpt>
      <trkpt lat="44.65054" lon="3.2197">
        <ele>1089</ele>
        <time>2019-05-30T14:00:18.360Z</time>
      </trkpt>
      <trkpt lat="44.6505" lon="3.21956">
        <ele>1090</ele>
        <time>2019-05-30T14:01:29.342Z</time>
      </trkpt>
      <trkpt lat="44.65049" lon="3.21955">
        <ele>1090</ele>
        <time>2019-05-30T14:01:33.372Z</time>
      </trkpt>
      <trkpt lat="44.65052" lon="3.21948">
        <ele>1090</ele>
        <time>2019-05-30T14:02:11.377Z</time>
      </trkpt>
      <trkpt lat="44.65055" lon="3.2194">
        <ele>1090</ele>
        <time>2019-05-30T14:02:16.347Z</time>
      </trkpt>
      <trkpt lat="44.65055" lon="3.21932">
        <ele>1090</ele>
        <time>2019-05-30T14:02:21.381Z</time>
      </trkpt>
      <trkpt lat="44.65053" lon="3.21921">
        <ele>1092</ele>
        <time>2019-05-30T14:02:26.339Z</time>
      </trkpt>
      <trkpt lat="44.65051" lon="3.21914">
        <ele>1092</ele>
        <time>2019-05-30T14:02:31.342Z</time>
      </trkpt>
      <trkpt lat="44.6505" lon="3.21908">
        <ele>1092</ele>
        <time>2019-05-30T14:02:35.344Z</time>
      </trkpt>
      <trkpt lat="44.6505" lon="3.21902">
        <ele>1094</ele>
        <time>2019-05-30T14:02:39.377Z</time>
      </trkpt>
      <trkpt lat="44.65048" lon="3.21898">
        <ele>1094</ele>
        <time>2019-05-30T14:02:44.350Z</time>
      </trkpt>
      <trkpt lat="44.65045" lon="3.2189">
        <ele>1094</ele>
        <time>2019-05-30T14:02:49.354Z</time>
      </trkpt>
      <trkpt lat="44.65044" lon="3.21882">
        <ele>1094</ele>
        <time>2019-05-30T14:02:54.345Z</time>
      </trkpt>
      <trkpt lat="44.65043" lon="3.21876">
        <ele>1094</ele>
        <time>2019-05-30T14:02:59.344Z</time>
      </trkpt>
      <trkpt lat="44.65041" lon="3.2187">
        <ele>1102</ele>
        <time>2019-05-30T14:03:04.344Z</time>
      </trkpt>
      <trkpt lat="44.65041" lon="3.21864">
        <ele>1102</ele>
        <time>2019-05-30T14:03:09.347Z</time>
      </trkpt>
      <trkpt lat="44.6504" lon="3.21856">
        <ele>1102</ele>
        <time>2019-05-30T14:03:14.356Z</time>
      </trkpt>
      <trkpt lat="44.65038" lon="3.21852">
        <ele>1102</ele>
        <time>2019-05-30T14:03:19.346Z</time>
      </trkpt>
      <trkpt lat="44.65035" lon="3.21845">
        <ele>1104</ele>
        <time>2019-05-30T14:03:24.345Z</time>
      </trkpt>
      <trkpt lat="44.65032" lon="3.21839">
        <ele>1104</ele>
        <time>2019-05-30T14:03:29.348Z</time>
      </trkpt>
      <trkpt lat="44.65028" lon="3.21834">
        <ele>1104</ele>
        <time>2019-05-30T14:03:34.338Z</time>
      </trkpt>
      <trkpt lat="44.65027" lon="3.21829">
        <ele>1104</ele>
        <time>2019-05-30T14:03:38.345Z</time>
      </trkpt>
      <trkpt lat="44.65024" lon="3.21825">
        <ele>1104</ele>
        <time>2019-05-30T14:03:43.341Z</time>
      </trkpt>
      <trkpt lat="44.65021" lon="3.21823">
        <ele>1104</ele>
        <time>2019-05-30T14:03:47.372Z</time>
      </trkpt>
      <trkpt lat="44.65015" lon="3.2182">
        <ele>1104</ele>
        <time>2019-05-30T14:03:52.344Z</time>
      </trkpt>
      <trkpt lat="44.65009" lon="3.21819">
        <ele>1111</ele>
        <time>2019-05-30T14:03:57.339Z</time>
      </trkpt>
      <trkpt lat="44.65003" lon="3.21822">
        <ele>1108</ele>
        <time>2019-05-30T14:04:02.344Z</time>
      </trkpt>
      <trkpt lat="44.65" lon="3.21825">
        <ele>1108</ele>
        <time>2019-05-30T14:04:06.377Z</time>
      </trkpt>
      <trkpt lat="44.64998" lon="3.2183">
        <ele>1108</ele>
        <time>2019-05-30T14:04:11.353Z</time>
      </trkpt>
      <trkpt lat="44.64996" lon="3.21832">
        <ele>1108</ele>
        <time>2019-05-30T14:04:16.385Z</time>
      </trkpt>
      <trkpt lat="44.64994" lon="3.21835">
        <ele>1108</ele>
        <time>2019-05-30T14:04:21.342Z</time>
      </trkpt>
      <trkpt lat="44.6499" lon="3.21841">
        <ele>1108</ele>
        <time>2019-05-30T14:04:25.320Z</time>
      </trkpt>
      <trkpt lat="44.64986" lon="3.21851">
        <ele>1106</ele>
        <time>2019-05-30T14:04:30.355Z</time>
      </trkpt>
      <trkpt lat="44.64982" lon="3.21859">
        <ele>1109</ele>
        <time>2019-05-30T14:04:35.330Z</time>
      </trkpt>
      <trkpt lat="44.64979" lon="3.21865">
        <ele>1109</ele>
        <time>2019-05-30T14:04:40.338Z</time>
      </trkpt>
      <trkpt lat="44.6498" lon="3.21874">
        <ele>1109</ele>
        <time>2019-05-30T14:04:44.355Z</time>
      </trkpt>
      <trkpt lat="44.64976" lon="3.21878">
        <ele>1107</ele>
        <time>2019-05-30T14:04:49.356Z</time>
      </trkpt>
      <trkpt lat="44.64971" lon="3.21881">
        <ele>1107</ele>
        <time>2019-05-30T14:04:54.326Z</time>
      </trkpt>
      <trkpt lat="44.64966" lon="3.21885">
        <ele>1107</ele>
        <time>2019-05-30T14:04:58.354Z</time>
      </trkpt>
      <trkpt lat="44.64963" lon="3.21892">
        <ele>1107</ele>
        <time>2019-05-30T14:05:03.338Z</time>
      </trkpt>
      <trkpt lat="44.6496" lon="3.21895">
        <ele>1107</ele>
        <time>2019-05-30T14:05:07.369Z</time>
      </trkpt>
      <trkpt lat="44.64956" lon="3.21899">
        <ele>1111</ele>
        <time>2019-05-30T14:05:12.325Z</time>
      </trkpt>
      <trkpt lat="44.64953" lon="3.21903">
        <ele>1108</ele>
        <time>2019-05-30T14:05:16.320Z</time>
      </trkpt>
      <trkpt lat="44.64949" lon="3.21909">
        <ele>1108</ele>
        <time>2019-05-30T14:05:21.337Z</time>
      </trkpt>
      <trkpt lat="44.64945" lon="3.21911">
        <ele>1108</ele>
        <time>2019-05-30T14:05:25.353Z</time>
      </trkpt>
      <trkpt lat="44.6494" lon="3.21915">
        <ele>1108</ele>
        <time>2019-05-30T14:05:30.363Z</time>
      </trkpt>
      <trkpt lat="44.64937" lon="3.21913">
        <ele>1108</ele>
        <time>2019-05-30T14:05:34.369Z</time>
      </trkpt>
      <trkpt lat="44.64933" lon="3.21915">
        <ele>1108</ele>
        <time>2019-05-30T14:05:39.337Z</time>
      </trkpt>
      <trkpt lat="44.64929" lon="3.21915">
        <ele>1111</ele>
        <time>2019-05-30T14:05:43.351Z</time>
      </trkpt>
      <trkpt lat="44.64922" lon="3.21914">
        <ele>1111</ele>
        <time>2019-05-30T14:05:48.336Z</time>
      </trkpt>
      <trkpt lat="44.64917" lon="3.21915">
        <ele>1111</ele>
        <time>2019-05-30T14:05:53.363Z</time>
      </trkpt>
      <trkpt lat="44.64913" lon="3.21915">
        <ele>1111</ele>
        <time>2019-05-30T14:05:58.364Z</time>
      </trkpt>
      <trkpt lat="44.64909" lon="3.21914">
        <ele>1111</ele>
        <time>2019-05-30T14:06:03.336Z</time>
      </trkpt>
      <trkpt lat="44.64904" lon="3.21915">
        <ele>1111</ele>
        <time>2019-05-30T14:06:07.364Z</time>
      </trkpt>
      <trkpt lat="44.64898" lon="3.21914">
        <ele>1114</ele>
        <time>2019-05-30T14:06:12.337Z</time>
      </trkpt>
      <trkpt lat="44.64893" lon="3.21914">
        <ele>1114</ele>
        <time>2019-05-30T14:06:17.334Z</time>
      </trkpt>
      <trkpt lat="44.64888" lon="3.21916">
        <ele>1114</ele>
        <time>2019-05-30T14:06:21.365Z</time>
      </trkpt>
      <trkpt lat="44.64884" lon="3.21917">
        <ele>1114</ele>
        <time>2019-05-30T14:06:26.335Z</time>
      </trkpt>
      <trkpt lat="44.6488" lon="3.21919">
        <ele>1114</ele>
        <time>2019-05-30T14:06:30.357Z</time>
      </trkpt>
      <trkpt lat="44.64876" lon="3.21922">
        <ele>1114</ele>
        <time>2019-05-30T14:06:35.324Z</time>
      </trkpt>
      <trkpt lat="44.64871" lon="3.21924">
        <ele>1117</ele>
        <time>2019-05-30T14:06:40.354Z</time>
      </trkpt>
      <trkpt lat="44.64867" lon="3.21926">
        <ele>1117</ele>
        <time>2019-05-30T14:06:45.341Z</time>
      </trkpt>
      <trkpt lat="44.64864" lon="3.21927">
        <ele>1117</ele>
        <time>2019-05-30T14:06:49.362Z</time>
      </trkpt>
      <trkpt lat="44.64859" lon="3.21925">
        <ele>1117</ele>
        <time>2019-05-30T14:06:54.366Z</time>
      </trkpt>
      <trkpt lat="44.64852" lon="3.21923">
        <ele>1117</ele>
        <time>2019-05-30T14:06:59.326Z</time>
      </trkpt>
      <trkpt lat="44.6485" lon="3.21923">
        <ele>1117</ele>
        <time>2019-05-30T14:07:03.334Z</time>
      </trkpt>
      <trkpt lat="44.64846" lon="3.21919">
        <ele>1118</ele>
        <time>2019-05-30T14:07:08.335Z</time>
      </trkpt>
      <trkpt lat="44.64843" lon="3.21917">
        <ele>1118</ele>
        <time>2019-05-30T14:07:12.363Z</time>
      </trkpt>
      <trkpt lat="44.64839" lon="3.21914">
        <ele>1118</ele>
        <time>2019-05-30T14:07:17.364Z</time>
      </trkpt>
      <trkpt lat="44.64836" lon="3.2191">
        <ele>1118</ele>
        <time>2019-05-30T14:07:22.362Z</time>
      </trkpt>
      <trkpt lat="44.64835" lon="3.21909">
        <ele>1118</ele>
        <time>2019-05-30T14:07:27.336Z</time>
      </trkpt>
      <trkpt lat="44.64831" lon="3.21904">
        <ele>1118</ele>
        <time>2019-05-30T14:07:32.366Z</time>
      </trkpt>
      <trkpt lat="44.64828" lon="3.219">
        <ele>1123</ele>
        <time>2019-05-30T14:07:37.364Z</time>
      </trkpt>
      <trkpt lat="44.64827" lon="3.21899">
        <ele>1123</ele>
        <time>2019-05-30T14:07:42.365Z</time>
      </trkpt>
      <trkpt lat="44.64824" lon="3.21896">
        <ele>1123</ele>
        <time>2019-05-30T14:07:47.334Z</time>
      </trkpt>
      <trkpt lat="44.64822" lon="3.21897">
        <ele>1123</ele>
        <time>2019-05-30T14:07:52.323Z</time>
      </trkpt>
      <trkpt lat="44.64821" lon="3.21897">
        <ele>1123</ele>
        <time>2019-05-30T14:08:00.354Z</time>
      </trkpt>
      <trkpt lat="44.64817" lon="3.21899">
        <ele>1125</ele>
        <time>2019-05-30T14:08:05.367Z</time>
      </trkpt>
      <trkpt lat="44.64813" lon="3.219">
        <ele>1125</ele>
        <time>2019-05-30T14:08:10.335Z</time>
      </trkpt>
      <trkpt lat="44.64811" lon="3.219">
        <ele>1125</ele>
        <time>2019-05-30T14:09:11.331Z</time>
      </trkpt>
      <trkpt lat="44.64808" lon="3.21906">
        <ele>1121</ele>
        <time>2019-05-30T14:09:34.324Z</time>
      </trkpt>
      <trkpt lat="44.64806" lon="3.21912">
        <ele>1121</ele>
        <time>2019-05-30T14:09:38.362Z</time>
      </trkpt>
      <trkpt lat="44.648" lon="3.21918">
        <ele>1121</ele>
        <time>2019-05-30T14:09:42.367Z</time>
      </trkpt>
      <trkpt lat="44.64797" lon="3.21924">
        <ele>1121</ele>
        <time>2019-05-30T14:09:47.323Z</time>
      </trkpt>
      <trkpt lat="44.64794" lon="3.21931">
        <ele>1121</ele>
        <time>2019-05-30T14:09:52.336Z</time>
      </trkpt>
      <trkpt lat="44.64791" lon="3.21937">
        <ele>1123</ele>
        <time>2019-05-30T14:09:57.336Z</time>
      </trkpt>
      <trkpt lat="44.64788" lon="3.21939">
        <ele>1123</ele>
        <time>2019-05-30T14:10:01.368Z</time>
      </trkpt>
      <trkpt lat="44.64785" lon="3.21943">
        <ele>1123</ele>
        <time>2019-05-30T14:10:06.338Z</time>
      </trkpt>
      <trkpt lat="44.64783" lon="3.21947">
        <ele>1123</ele>
        <time>2019-05-30T14:10:10.358Z</time>
      </trkpt>
      <trkpt lat="44.6478" lon="3.21951">
        <ele>1123</ele>
        <time>2019-05-30T14:10:15.366Z</time>
      </trkpt>
      <trkpt lat="44.64778" lon="3.21956">
        <ele>1123</ele>
        <time>2019-05-30T14:10:20.355Z</time>
      </trkpt>
      <trkpt lat="44.64776" lon="3.21961">
        <ele>1119</ele>
        <time>2019-05-30T14:10:25.328Z</time>
      </trkpt>
      <trkpt lat="44.64774" lon="3.21964">
        <ele>1119</ele>
        <time>2019-05-30T14:10:30.365Z</time>
      </trkpt>
      <trkpt lat="44.6477" lon="3.21969">
        <ele>1119</ele>
        <time>2019-05-30T14:10:35.359Z</time>
      </trkpt>
      <trkpt lat="44.64769" lon="3.21974">
        <ele>1119</ele>
        <time>2019-05-30T14:10:40.336Z</time>
      </trkpt>
      <trkpt lat="44.64767" lon="3.21977">
        <ele>1119</ele>
        <time>2019-05-30T14:10:44.365Z</time>
      </trkpt>
      <trkpt lat="44.64765" lon="3.21983">
        <ele>1119</ele>
        <time>2019-05-30T14:10:49.364Z</time>
      </trkpt>
      <trkpt lat="44.64762" lon="3.21988">
        <ele>1120</ele>
        <time>2019-05-30T14:10:54.364Z</time>
      </trkpt>
      <trkpt lat="44.64761" lon="3.21996">
        <ele>1120</ele>
        <time>2019-05-30T14:10:59.367Z</time>
      </trkpt>
      <trkpt lat="44.64758" lon="3.22003">
        <ele>1120</ele>
        <time>2019-05-30T14:11:04.337Z</time>
      </trkpt>
      <trkpt lat="44.64756" lon="3.22008">
        <ele>1120</ele>
        <time>2019-05-30T14:11:08.366Z</time>
      </trkpt>
      <trkpt lat="44.64753" lon="3.22013">
        <ele>1120</ele>
        <time>2019-05-30T14:11:13.336Z</time>
      </trkpt>
      <trkpt lat="44.64751" lon="3.22017">
        <ele>1117</ele>
        <time>2019-05-30T14:11:17.365Z</time>
      </trkpt>
      <trkpt lat="44.64748" lon="3.2202">
        <ele>1117</ele>
        <time>2019-05-30T14:11:22.365Z</time>
      </trkpt>
      <trkpt lat="44.64747" lon="3.2202">
        <ele>1117</ele>
        <time>2019-05-30T14:11:27.340Z</time>
      </trkpt>
      <trkpt lat="44.64745" lon="3.22023">
        <ele>1117</ele>
        <time>2019-05-30T14:11:32.338Z</time>
      </trkpt>
      <trkpt lat="44.64742" lon="3.2203">
        <ele>1117</ele>
        <time>2019-05-30T14:11:37.337Z</time>
      </trkpt>
      <trkpt lat="44.64741" lon="3.22038">
        <ele>1117</ele>
        <time>2019-05-30T14:11:42.323Z</time>
      </trkpt>
      <trkpt lat="44.64739" lon="3.22043">
        <ele>1113</ele>
        <time>2019-05-30T14:11:46.337Z</time>
      </trkpt>
      <trkpt lat="44.64737" lon="3.2205">
        <ele>1113</ele>
        <time>2019-05-30T14:11:51.366Z</time>
      </trkpt>
      <trkpt lat="44.64735" lon="3.22054">
        <ele>1119</ele>
        <time>2019-05-30T14:11:56.335Z</time>
      </trkpt>
      <trkpt lat="44.64731" lon="3.22058">
        <ele>1119</ele>
        <time>2019-05-30T14:12:00.348Z</time>
      </trkpt>
      <trkpt lat="44.64728" lon="3.22062">
        <ele>1119</ele>
        <time>2019-05-30T14:12:05.356Z</time>
      </trkpt>
      <trkpt lat="44.64725" lon="3.22068">
        <ele>1119</ele>
        <time>2019-05-30T14:12:10.344Z</time>
      </trkpt>
      <trkpt lat="44.64722" lon="3.2207">
        <ele>1116</ele>
        <time>2019-05-30T14:12:14.375Z</time>
      </trkpt>
      <trkpt lat="44.64719" lon="3.22075">
        <ele>1116</ele>
        <time>2019-05-30T14:12:19.343Z</time>
      </trkpt>
      <trkpt lat="44.64717" lon="3.22078">
        <ele>1116</ele>
        <time>2019-05-30T14:12:23.373Z</time>
      </trkpt>
      <trkpt lat="44.64718" lon="3.22084">
        <ele>1116</ele>
        <time>2019-05-30T14:12:28.350Z</time>
      </trkpt>
      <trkpt lat="44.64717" lon="3.2209">
        <ele>1116</ele>
        <time>2019-05-30T14:12:33.333Z</time>
      </trkpt>
      <trkpt lat="44.64716" lon="3.22095">
        <ele>1116</ele>
        <time>2019-05-30T14:12:37.337Z</time>
      </trkpt>
      <trkpt lat="44.64714" lon="3.22098">
        <ele>1115</ele>
        <time>2019-05-30T14:12:41.373Z</time>
      </trkpt>
      <trkpt lat="44.64709" lon="3.22101">
        <ele>1115</ele>
        <time>2019-05-30T14:12:46.347Z</time>
      </trkpt>
      <trkpt lat="44.64707" lon="3.22106">
        <ele>1119</ele>
        <time>2019-05-30T14:12:55.370Z</time>
      </trkpt>
      <trkpt lat="44.64705" lon="3.2211">
        <ele>1119</ele>
        <time>2019-05-30T14:12:59.374Z</time>
      </trkpt>
      <trkpt lat="44.64704" lon="3.22115">
        <ele>1119</ele>
        <time>2019-05-30T14:13:04.340Z</time>
      </trkpt>
      <trkpt lat="44.64699" lon="3.22121">
        <ele>1119</ele>
        <time>2019-05-30T14:13:09.325Z</time>
      </trkpt>
      <trkpt lat="44.64697" lon="3.22126">
        <ele>1117</ele>
        <time>2019-05-30T14:13:13.352Z</time>
      </trkpt>
      <trkpt lat="44.64696" lon="3.22131">
        <ele>1117</ele>
        <time>2019-05-30T14:13:18.325Z</time>
      </trkpt>
      <trkpt lat="44.64691" lon="3.2214">
        <ele>1117</ele>
        <time>2019-05-30T14:13:23.322Z</time>
      </trkpt>
      <trkpt lat="44.6469" lon="3.22142">
        <ele>1117</ele>
        <time>2019-05-30T14:13:28.323Z</time>
      </trkpt>
      <trkpt lat="44.64689" lon="3.22145">
        <ele>1117</ele>
        <time>2019-05-30T14:13:32.330Z</time>
      </trkpt>
      <trkpt lat="44.64687" lon="3.22154">
        <ele>1117</ele>
        <time>2019-05-30T14:13:37.320Z</time>
      </trkpt>
      <trkpt lat="44.64686" lon="3.22159">
        <ele>1117</ele>
        <time>2019-05-30T14:13:41.351Z</time>
      </trkpt>
      <trkpt lat="44.64683" lon="3.22166">
        <ele>1117</ele>
        <time>2019-05-30T14:13:46.326Z</time>
      </trkpt>
      <trkpt lat="44.64681" lon="3.22172">
        <ele>1117</ele>
        <time>2019-05-30T14:13:51.323Z</time>
      </trkpt>
      <trkpt lat="44.64679" lon="3.22176">
        <ele>1119</ele>
        <time>2019-05-30T14:13:55.353Z</time>
      </trkpt>
      <trkpt lat="44.64675" lon="3.22183">
        <ele>1120</ele>
        <time>2019-05-30T14:14:00.326Z</time>
      </trkpt>
      <trkpt lat="44.64672" lon="3.22187">
        <ele>1120</ele>
        <time>2019-05-30T14:14:05.323Z</time>
      </trkpt>
      <trkpt lat="44.64668" lon="3.22192">
        <ele>1120</ele>
        <time>2019-05-30T14:14:09.357Z</time>
      </trkpt>
      <trkpt lat="44.64666" lon="3.22198">
        <ele>1120</ele>
        <time>2019-05-30T14:14:14.351Z</time>
      </trkpt>
      <trkpt lat="44.64666" lon="3.22199">
        <ele>1120</ele>
        <time>2019-05-30T14:14:19.337Z</time>
      </trkpt>
      <trkpt lat="44.64665" lon="3.22204">
        <ele>1120</ele>
        <time>2019-05-30T14:14:24.330Z</time>
      </trkpt>
      <trkpt lat="44.64661" lon="3.22212">
        <ele>1120</ele>
        <time>2019-05-30T14:14:29.326Z</time>
      </trkpt>
      <trkpt lat="44.64657" lon="3.22218">
        <ele>1120</ele>
        <time>2019-05-30T14:14:34.328Z</time>
      </trkpt>
      <trkpt lat="44.64656" lon="3.22218">
        <ele>1120</ele>
        <time>2019-05-30T14:14:39.325Z</time>
      </trkpt>
      <trkpt lat="44.64653" lon="3.22222">
        <ele>1120</ele>
        <time>2019-05-30T14:14:48.354Z</time>
      </trkpt>
      <trkpt lat="44.6465" lon="3.22228">
        <ele>1122</ele>
        <time>2019-05-30T14:14:53.326Z</time>
      </trkpt>
      <trkpt lat="44.64648" lon="3.22232">
        <ele>1122</ele>
        <time>2019-05-30T14:14:57.362Z</time>
      </trkpt>
      <trkpt lat="44.64644" lon="3.22233">
        <ele>1122</ele>
        <time>2019-05-30T14:15:01.325Z</time>
      </trkpt>
      <trkpt lat="44.64641" lon="3.22237">
        <ele>1120</ele>
        <time>2019-05-30T14:15:06.321Z</time>
      </trkpt>
      <trkpt lat="44.64638" lon="3.2224">
        <ele>1120</ele>
        <time>2019-05-30T14:15:10.347Z</time>
      </trkpt>
      <trkpt lat="44.64635" lon="3.22244">
        <ele>1120</ele>
        <time>2019-05-30T14:15:15.373Z</time>
      </trkpt>
      <trkpt lat="44.64629" lon="3.22246">
        <ele>1120</ele>
        <time>2019-05-30T14:15:20.363Z</time>
      </trkpt>
      <trkpt lat="44.64625" lon="3.22249">
        <ele>1120</ele>
        <time>2019-05-30T14:15:25.319Z</time>
      </trkpt>
      <trkpt lat="44.6462" lon="3.2225">
        <ele>1123</ele>
        <time>2019-05-30T14:15:29.361Z</time>
      </trkpt>
      <trkpt lat="44.64616" lon="3.22255">
        <ele>1123</ele>
        <time>2019-05-30T14:15:34.346Z</time>
      </trkpt>
      <trkpt lat="44.64613" lon="3.22258">
        <ele>1123</ele>
        <time>2019-05-30T14:15:39.348Z</time>
      </trkpt>
      <trkpt lat="44.64609" lon="3.2226">
        <ele>1123</ele>
        <time>2019-05-30T14:15:44.346Z</time>
      </trkpt>
      <trkpt lat="44.64606" lon="3.22263">
        <ele>1123</ele>
        <time>2019-05-30T14:15:49.371Z</time>
      </trkpt>
      <trkpt lat="44.64602" lon="3.22267">
        <ele>1122</ele>
        <time>2019-05-30T14:15:54.349Z</time>
      </trkpt>
      <trkpt lat="44.64597" lon="3.22271">
        <ele>1122</ele>
        <time>2019-05-30T14:15:59.345Z</time>
      </trkpt>
      <trkpt lat="44.64592" lon="3.22275">
        <ele>1122</ele>
        <time>2019-05-30T14:16:04.348Z</time>
      </trkpt>
      <trkpt lat="44.64588" lon="3.22279">
        <ele>1122</ele>
        <time>2019-05-30T14:16:09.341Z</time>
      </trkpt>
      <trkpt lat="44.64585" lon="3.22284">
        <ele>1122</ele>
        <time>2019-05-30T14:16:13.334Z</time>
      </trkpt>
      <trkpt lat="44.6458" lon="3.22288">
        <ele>1122</ele>
        <time>2019-05-30T14:16:19.329Z</time>
      </trkpt>
      <trkpt lat="44.64576" lon="3.2229">
        <ele>1122</ele>
        <time>2019-05-30T14:16:23.340Z</time>
      </trkpt>
      <trkpt lat="44.64571" lon="3.22296">
        <ele>1118</ele>
        <time>2019-05-30T14:16:28.324Z</time>
      </trkpt>
      <trkpt lat="44.64568" lon="3.223">
        <ele>1119</ele>
        <time>2019-05-30T14:16:33.334Z</time>
      </trkpt>
      <trkpt lat="44.64565" lon="3.22304">
        <ele>1119</ele>
        <time>2019-05-30T14:16:38.335Z</time>
      </trkpt>
      <trkpt lat="44.64561" lon="3.22308">
        <ele>1119</ele>
        <time>2019-05-30T14:16:42.325Z</time>
      </trkpt>
      <trkpt lat="44.64559" lon="3.22312">
        <ele>1119</ele>
        <time>2019-05-30T14:16:46.362Z</time>
      </trkpt>
      <trkpt lat="44.64555" lon="3.22314">
        <ele>1119</ele>
        <time>2019-05-30T14:16:50.374Z</time>
      </trkpt>
      <trkpt lat="44.64549" lon="3.22317">
        <ele>1119</ele>
        <time>2019-05-30T14:16:55.345Z</time>
      </trkpt>
      <trkpt lat="44.64545" lon="3.22319">
        <ele>1119</ele>
        <time>2019-05-30T14:17:00.349Z</time>
      </trkpt>
      <trkpt lat="44.6454" lon="3.22322">
        <ele>1117</ele>
        <time>2019-05-30T14:17:05.339Z</time>
      </trkpt>
      <trkpt lat="44.64532" lon="3.22323">
        <ele>1117</ele>
        <time>2019-05-30T14:17:10.345Z</time>
      </trkpt>
      <trkpt lat="44.64526" lon="3.22324">
        <ele>1117</ele>
        <time>2019-05-30T14:17:15.335Z</time>
      </trkpt>
      <trkpt lat="44.64522" lon="3.22326">
        <ele>1117</ele>
        <time>2019-05-30T14:17:19.354Z</time>
      </trkpt>
      <trkpt lat="44.64517" lon="3.22328">
        <ele>1117</ele>
        <time>2019-05-30T14:17:24.350Z</time>
      </trkpt>
      <trkpt lat="44.64512" lon="3.2233">
        <ele>1119</ele>
        <time>2019-05-30T14:17:29.343Z</time>
      </trkpt>
      <trkpt lat="44.64511" lon="3.2233">
        <ele>1119</ele>
        <time>2019-05-30T14:17:34.379Z</time>
      </trkpt>
      <trkpt lat="44.6451" lon="3.2233">
        <ele>1119</ele>
        <time>2019-05-30T14:17:39.340Z</time>
      </trkpt>
      <trkpt lat="44.64504" lon="3.22327">
        <ele>1119</ele>
        <time>2019-05-30T14:17:44.351Z</time>
      </trkpt>
      <trkpt lat="44.64498" lon="3.22327">
        <ele>1119</ele>
        <time>2019-05-30T14:17:49.377Z</time>
      </trkpt>
      <trkpt lat="44.64493" lon="3.22324">
        <ele>1119</ele>
        <time>2019-05-30T14:17:54.346Z</time>
      </trkpt>
      <trkpt lat="44.64488" lon="3.22322">
        <ele>1119</ele>
        <time>2019-05-30T14:17:59.338Z</time>
      </trkpt>
      <trkpt lat="44.64483" lon="3.22321">
        <ele>1121</ele>
        <time>2019-05-30T14:18:04.335Z</time>
      </trkpt>
      <trkpt lat="44.64478" lon="3.22321">
        <ele>1121</ele>
        <time>2019-05-30T14:18:09.356Z</time>
      </trkpt>
      <trkpt lat="44.64474" lon="3.22321">
        <ele>1121</ele>
        <time>2019-05-30T14:18:14.343Z</time>
      </trkpt>
      <trkpt lat="44.64468" lon="3.22318">
        <ele>1126</ele>
        <time>2019-05-30T14:18:19.337Z</time>
      </trkpt>
      <trkpt lat="44.64463" lon="3.22317">
        <ele>1126</ele>
        <time>2019-05-30T14:18:24.343Z</time>
      </trkpt>
      <trkpt lat="44.64458" lon="3.22316">
        <ele>1124</ele>
        <time>2019-05-30T14:18:29.351Z</time>
      </trkpt>
      <trkpt lat="44.64452" lon="3.22315">
        <ele>1124</ele>
        <time>2019-05-30T14:18:34.349Z</time>
      </trkpt>
      <trkpt lat="44.64447" lon="3.22313">
        <ele>1124</ele>
        <time>2019-05-30T14:18:39.353Z</time>
      </trkpt>
      <trkpt lat="44.64442" lon="3.22312">
        <ele>1124</ele>
        <time>2019-05-30T14:18:44.336Z</time>
      </trkpt>
      <trkpt lat="44.64438" lon="3.22312">
        <ele>1124</ele>
        <time>2019-05-30T14:18:48.346Z</time>
      </trkpt>
      <trkpt lat="44.64434" lon="3.22312">
        <ele>1124</ele>
        <time>2019-05-30T14:18:52.374Z</time>
      </trkpt>
      <trkpt lat="44.64429" lon="3.2231">
        <ele>1121</ele>
        <time>2019-05-30T14:18:57.345Z</time>
      </trkpt>
      <trkpt lat="44.64424" lon="3.22309">
        <ele>1121</ele>
        <time>2019-05-30T14:19:02.341Z</time>
      </trkpt>
      <trkpt lat="44.64418" lon="3.22308">
        <ele>1121</ele>
        <time>2019-05-30T14:19:07.343Z</time>
      </trkpt>
      <trkpt lat="44.64413" lon="3.22305">
        <ele>1121</ele>
        <time>2019-05-30T14:19:12.346Z</time>
      </trkpt>
      <trkpt lat="44.64408" lon="3.22304">
        <ele>1121</ele>
        <time>2019-05-30T14:19:17.349Z</time>
      </trkpt>
      <trkpt lat="44.64405" lon="3.22305">
        <ele>1121</ele>
        <time>2019-05-30T14:19:21.351Z</time>
      </trkpt>
      <trkpt lat="44.644" lon="3.22303">
        <ele>1118</ele>
        <time>2019-05-30T14:19:26.354Z</time>
      </trkpt>
      <trkpt lat="44.64396" lon="3.22301">
        <ele>1118</ele>
        <time>2019-05-30T14:19:31.360Z</time>
      </trkpt>
      <trkpt lat="44.64391" lon="3.223">
        <ele>1118</ele>
        <time>2019-05-30T14:19:36.345Z</time>
      </trkpt>
      <trkpt lat="44.64387" lon="3.22298">
        <ele>1118</ele>
        <time>2019-05-30T14:19:40.345Z</time>
      </trkpt>
      <trkpt lat="44.64381" lon="3.22296">
        <ele>1118</ele>
        <time>2019-05-30T14:19:45.346Z</time>
      </trkpt>
      <trkpt lat="44.64375" lon="3.22294">
        <ele>1117</ele>
        <time>2019-05-30T14:19:50.377Z</time>
      </trkpt>
      <trkpt lat="44.64371" lon="3.22292">
        <ele>1117</ele>
        <time>2019-05-30T14:19:55.369Z</time>
      </trkpt>
      <trkpt lat="44.64367" lon="3.2229">
        <ele>1118</ele>
        <time>2019-05-30T14:20:00.376Z</time>
      </trkpt>
      <trkpt lat="44.64362" lon="3.22288">
        <ele>1118</ele>
        <time>2019-05-30T14:20:05.349Z</time>
      </trkpt>
      <trkpt lat="44.64357" lon="3.22285">
        <ele>1118</ele>
        <time>2019-05-30T14:20:09.370Z</time>
      </trkpt>
      <trkpt lat="44.64351" lon="3.22284">
        <ele>1118</ele>
        <time>2019-05-30T14:20:14.350Z</time>
      </trkpt>
      <trkpt lat="44.64346" lon="3.22287">
        <ele>1118</ele>
        <time>2019-05-30T14:20:19.350Z</time>
      </trkpt>
      <trkpt lat="44.64341" lon="3.2229">
        <ele>1118</ele>
        <time>2019-05-30T14:20:24.374Z</time>
      </trkpt>
      <trkpt lat="44.64336" lon="3.22291">
        <ele>1118</ele>
        <time>2019-05-30T14:20:29.350Z</time>
      </trkpt>
      <trkpt lat="44.64332" lon="3.22293">
        <ele>1115</ele>
        <time>2019-05-30T14:20:34.340Z</time>
      </trkpt>
      <trkpt lat="44.64327" lon="3.22295">
        <ele>1115</ele>
        <time>2019-05-30T14:20:38.377Z</time>
      </trkpt>
      <trkpt lat="44.64321" lon="3.22298">
        <ele>1115</ele>
        <time>2019-05-30T14:20:43.346Z</time>
      </trkpt>
      <trkpt lat="44.64316" lon="3.22301">
        <ele>1116</ele>
        <time>2019-05-30T14:20:48.345Z</time>
      </trkpt>
      <trkpt lat="44.64313" lon="3.22303">
        <ele>1116</ele>
        <time>2019-05-30T14:20:52.375Z</time>
      </trkpt>
      <trkpt lat="44.64307" lon="3.22305">
        <ele>1116</ele>
        <time>2019-05-30T14:20:57.348Z</time>
      </trkpt>
      <trkpt lat="44.64302" lon="3.22308">
        <ele>1116</ele>
        <time>2019-05-30T14:21:02.347Z</time>
      </trkpt>
      <trkpt lat="44.64297" lon="3.22309">
        <ele>1116</ele>
        <time>2019-05-30T14:21:07.349Z</time>
      </trkpt>
      <trkpt lat="44.64292" lon="3.22311">
        <ele>1117</ele>
        <time>2019-05-30T14:21:12.381Z</time>
      </trkpt>
      <trkpt lat="44.64285" lon="3.22312">
        <ele>1117</ele>
        <time>2019-05-30T14:21:17.380Z</time>
      </trkpt>
      <trkpt lat="44.64279" lon="3.22314">
        <ele>1117</ele>
        <time>2019-05-30T14:21:22.350Z</time>
      </trkpt>
      <trkpt lat="44.64273" lon="3.22314">
        <ele>1117</ele>
        <time>2019-05-30T14:21:27.367Z</time>
      </trkpt>
      <trkpt lat="44.64268" lon="3.22314">
        <ele>1117</ele>
        <time>2019-05-30T14:21:32.347Z</time>
      </trkpt>
      <trkpt lat="44.64264" lon="3.22312">
        <ele>1116</ele>
        <time>2019-05-30T14:21:37.351Z</time>
      </trkpt>
      <trkpt lat="44.64259" lon="3.22309">
        <ele>1116</ele>
        <time>2019-05-30T14:21:42.344Z</time>
      </trkpt>
      <trkpt lat="44.64255" lon="3.22308">
        <ele>1116</ele>
        <time>2019-05-30T14:21:46.351Z</time>
      </trkpt>
      <trkpt lat="44.64251" lon="3.22305">
        <ele>1116</ele>
        <time>2019-05-30T14:21:51.344Z</time>
      </trkpt>
      <trkpt lat="44.64246" lon="3.22302">
        <ele>1116</ele>
        <time>2019-05-30T14:21:55.384Z</time>
      </trkpt>
      <trkpt lat="44.6424" lon="3.22301">
        <ele>1116</ele>
        <time>2019-05-30T14:22:00.333Z</time>
      </trkpt>
      <trkpt lat="44.64235" lon="3.22299">
        <ele>1114</ele>
        <time>2019-05-30T14:22:04.349Z</time>
      </trkpt>
      <trkpt lat="44.6423" lon="3.22295">
        <ele>1114</ele>
        <time>2019-05-30T14:22:09.351Z</time>
      </trkpt>
      <trkpt lat="44.64226" lon="3.22293">
        <ele>1114</ele>
        <time>2019-05-30T14:22:13.363Z</time>
      </trkpt>
      <trkpt lat="44.64222" lon="3.22291">
        <ele>1114</ele>
        <time>2019-05-30T14:22:17.370Z</time>
      </trkpt>
      <trkpt lat="44.64216" lon="3.22287">
        <ele>1114</ele>
        <time>2019-05-30T14:22:22.345Z</time>
      </trkpt>
      <trkpt lat="44.64213" lon="3.22283">
        <ele>1114</ele>
        <time>2019-05-30T14:22:27.344Z</time>
      </trkpt>
      <trkpt lat="44.64208" lon="3.22279">
        <ele>1111</ele>
        <time>2019-05-30T14:22:32.356Z</time>
      </trkpt>
      <trkpt lat="44.64203" lon="3.22275">
        <ele>1111</ele>
        <time>2019-05-30T14:22:37.347Z</time>
      </trkpt>
      <trkpt lat="44.64196" lon="3.22272">
        <ele>1111</ele>
        <time>2019-05-30T14:22:42.350Z</time>
      </trkpt>
      <trkpt lat="44.6419" lon="3.22272">
        <ele>1111</ele>
        <time>2019-05-30T14:22:47.346Z</time>
      </trkpt>
      <trkpt lat="44.64184" lon="3.22271">
        <ele>1111</ele>
        <time>2019-05-30T14:22:52.349Z</time>
      </trkpt>
      <trkpt lat="44.64178" lon="3.22271">
        <ele>1108</ele>
        <time>2019-05-30T14:22:57.350Z</time>
      </trkpt>
      <trkpt lat="44.64174" lon="3.22271">
        <ele>1108</ele>
        <time>2019-05-30T14:23:01.375Z</time>
      </trkpt>
      <trkpt lat="44.64167" lon="3.22272">
        <ele>1108</ele>
        <time>2019-05-30T14:23:06.347Z</time>
      </trkpt>
      <trkpt lat="44.64162" lon="3.22271">
        <ele>1108</ele>
        <time>2019-05-30T14:23:11.355Z</time>
      </trkpt>
      <trkpt lat="44.64156" lon="3.22272">
        <ele>1108</ele>
        <time>2019-05-30T14:23:16.375Z</time>
      </trkpt>
      <trkpt lat="44.64151" lon="3.22272">
        <ele>1106</ele>
        <time>2019-05-30T14:23:21.341Z</time>
      </trkpt>
      <trkpt lat="44.64147" lon="3.22273">
        <ele>1106</ele>
        <time>2019-05-30T14:23:26.342Z</time>
      </trkpt>
      <trkpt lat="44.64144" lon="3.22273">
        <ele>1106</ele>
        <time>2019-05-30T14:23:30.347Z</time>
      </trkpt>
      <trkpt lat="44.64139" lon="3.22273">
        <ele>1106</ele>
        <time>2019-05-30T14:23:35.350Z</time>
      </trkpt>
      <trkpt lat="44.64134" lon="3.22273">
        <ele>1106</ele>
        <time>2019-05-30T14:23:40.347Z</time>
      </trkpt>
      <trkpt lat="44.64129" lon="3.22273">
        <ele>1106</ele>
        <time>2019-05-30T14:23:45.343Z</time>
      </trkpt>
      <trkpt lat="44.64126" lon="3.22274">
        <ele>1106</ele>
        <time>2019-05-30T14:23:50.344Z</time>
      </trkpt>
      <trkpt lat="44.64121" lon="3.22273">
        <ele>1104</ele>
        <time>2019-05-30T14:23:55.346Z</time>
      </trkpt>
      <trkpt lat="44.64117" lon="3.22274">
        <ele>1104</ele>
        <time>2019-05-30T14:23:59.371Z</time>
      </trkpt>
      <trkpt lat="44.64113" lon="3.22274">
        <ele>1104</ele>
        <time>2019-05-30T14:24:04.341Z</time>
      </trkpt>
      <trkpt lat="44.64108" lon="3.22273">
        <ele>1104</ele>
        <time>2019-05-30T14:24:09.346Z</time>
      </trkpt>
      <trkpt lat="44.64104" lon="3.22272">
        <ele>1104</ele>
        <time>2019-05-30T14:24:13.379Z</time>
      </trkpt>
      <trkpt lat="44.64099" lon="3.22271">
        <ele>1104</ele>
        <time>2019-05-30T14:24:18.341Z</time>
      </trkpt>
      <trkpt lat="44.64095" lon="3.22268">
        <ele>1102</ele>
        <time>2019-05-30T14:24:22.358Z</time>
      </trkpt>
      <trkpt lat="44.64091" lon="3.22266">
        <ele>1102</ele>
        <time>2019-05-30T14:24:27.373Z</time>
      </trkpt>
      <trkpt lat="44.64088" lon="3.22262">
        <ele>1103</ele>
        <time>2019-05-30T14:24:32.373Z</time>
      </trkpt>
      <trkpt lat="44.64084" lon="3.22257">
        <ele>1103</ele>
        <time>2019-05-30T14:24:37.344Z</time>
      </trkpt>
      <trkpt lat="44.64082" lon="3.22252">
        <ele>1103</ele>
        <time>2019-05-30T14:24:42.348Z</time>
      </trkpt>
      <trkpt lat="44.6408" lon="3.22249">
        <ele>1103</ele>
        <time>2019-05-30T14:24:46.350Z</time>
      </trkpt>
      <trkpt lat="44.64077" lon="3.22246">
        <ele>1103</ele>
        <time>2019-05-30T14:24:51.346Z</time>
      </trkpt>
      <trkpt lat="44.64074" lon="3.22242">
        <ele>1103</ele>
        <time>2019-05-30T14:24:56.345Z</time>
      </trkpt>
      <trkpt lat="44.64072" lon="3.22237">
        <ele>1103</ele>
        <time>2019-05-30T14:25:01.340Z</time>
      </trkpt>
      <trkpt lat="44.6407" lon="3.22234">
        <ele>1104</ele>
        <time>2019-05-30T14:25:05.347Z</time>
      </trkpt>
      <trkpt lat="44.64068" lon="3.22228">
        <ele>1101</ele>
        <time>2019-05-30T14:25:10.346Z</time>
      </trkpt>
      <trkpt lat="44.64066" lon="3.22222">
        <ele>1101</ele>
        <time>2019-05-30T14:25:15.350Z</time>
      </trkpt>
      <trkpt lat="44.64063" lon="3.22217">
        <ele>1101</ele>
        <time>2019-05-30T14:25:20.375Z</time>
      </trkpt>
      <trkpt lat="44.64061" lon="3.22211">
        <ele>1101</ele>
        <time>2019-05-30T14:25:25.349Z</time>
      </trkpt>
      <trkpt lat="44.64058" lon="3.22206">
        <ele>1102</ele>
        <time>2019-05-30T14:25:30.340Z</time>
      </trkpt>
      <trkpt lat="44.64055" lon="3.222">
        <ele>1102</ele>
        <time>2019-05-30T14:25:35.367Z</time>
      </trkpt>
      <trkpt lat="44.64052" lon="3.22194">
        <ele>1102</ele>
        <time>2019-05-30T14:25:39.370Z</time>
      </trkpt>
      <trkpt lat="44.6405" lon="3.22188">
        <ele>1102</ele>
        <time>2019-05-30T14:25:44.338Z</time>
      </trkpt>
      <trkpt lat="44.64048" lon="3.22184">
        <ele>1102</ele>
        <time>2019-05-30T14:25:48.371Z</time>
      </trkpt>
      <trkpt lat="44.64047" lon="3.22183">
        <ele>1102</ele>
        <time>2019-05-30T14:25:53.340Z</time>
      </trkpt>
      <trkpt lat="44.64045" lon="3.22181">
        <ele>1102</ele>
        <time>2019-05-30T14:26:02.351Z</time>
      </trkpt>
      <trkpt lat="44.6404" lon="3.22178">
        <ele>1102</ele>
        <time>2019-05-30T14:26:17.344Z</time>
      </trkpt>
      <trkpt lat="44.64034" lon="3.22178">
        <ele>1102</ele>
        <time>2019-05-30T14:26:21.338Z</time>
      </trkpt>
      <trkpt lat="44.64036" lon="3.22176">
        <ele>1102</ele>
        <time>2019-05-30T14:27:35.364Z</time>
      </trkpt>
      <trkpt lat="44.64039" lon="3.22184">
        <ele>1100</ele>
        <time>2019-05-30T14:27:59.357Z</time>
      </trkpt>
      <trkpt lat="44.64044" lon="3.22194">
        <ele>1102</ele>
        <time>2019-05-30T14:28:04.343Z</time>
      </trkpt>
      <trkpt lat="44.64048" lon="3.22198">
        <ele>1102</ele>
        <time>2019-05-30T14:28:08.359Z</time>
      </trkpt>
      <trkpt lat="44.64051" lon="3.22203">
        <ele>1102</ele>
        <time>2019-05-30T14:28:13.377Z</time>
      </trkpt>
      <trkpt lat="44.64054" lon="3.22209">
        <ele>1101</ele>
        <time>2019-05-30T14:28:18.340Z</time>
      </trkpt>
      <trkpt lat="44.64056" lon="3.22217">
        <ele>1101</ele>
        <time>2019-05-30T14:28:22.372Z</time>
      </trkpt>
      <trkpt lat="44.6406" lon="3.22225">
        <ele>1101</ele>
        <time>2019-05-30T14:28:27.344Z</time>
      </trkpt>
      <trkpt lat="44.64063" lon="3.22231">
        <ele>1101</ele>
        <time>2019-05-30T14:28:32.346Z</time>
      </trkpt>
      <trkpt lat="44.64067" lon="3.22237">
        <ele>1100</ele>
        <time>2019-05-30T14:28:37.343Z</time>
      </trkpt>
      <trkpt lat="44.64071" lon="3.22245">
        <ele>1103</ele>
        <time>2019-05-30T14:28:42.345Z</time>
      </trkpt>
      <trkpt lat="44.64073" lon="3.22251">
        <ele>1103</ele>
        <time>2019-05-30T14:28:46.346Z</time>
      </trkpt>
      <trkpt lat="44.64073" lon="3.22252">
        <ele>1103</ele>
        <time>2019-05-30T14:28:51.346Z</time>
      </trkpt>
      <trkpt lat="44.64075" lon="3.22245">
        <ele>1103</ele>
        <time>2019-05-30T14:29:28.368Z</time>
      </trkpt>
      <trkpt lat="44.64074" lon="3.22244">
        <ele>1103</ele>
        <time>2019-05-30T14:29:42.364Z</time>
      </trkpt>
      <trkpt lat="44.64072" lon="3.22241">
        <ele>1103</ele>
        <time>2019-05-30T14:29:47.341Z</time>
      </trkpt>
      <trkpt lat="44.64071" lon="3.22234">
        <ele>1104</ele>
        <time>2019-05-30T14:29:52.347Z</time>
      </trkpt>
      <trkpt lat="44.64069" lon="3.22227">
        <ele>1101</ele>
        <time>2019-05-30T14:29:56.346Z</time>
      </trkpt>
      <trkpt lat="44.64066" lon="3.2222">
        <ele>1101</ele>
        <time>2019-05-30T14:30:01.348Z</time>
      </trkpt>
      <trkpt lat="44.64063" lon="3.22215">
        <ele>1101</ele>
        <time>2019-05-30T14:30:05.374Z</time>
      </trkpt>
      <trkpt lat="44.6406" lon="3.2221">
        <ele>1101</ele>
        <time>2019-05-30T14:30:10.341Z</time>
      </trkpt>
      <trkpt lat="44.64059" lon="3.22203">
        <ele>1102</ele>
        <time>2019-05-30T14:30:15.350Z</time>
      </trkpt>
      <trkpt lat="44.64055" lon="3.22197">
        <ele>1102</ele>
        <time>2019-05-30T14:30:20.340Z</time>
      </trkpt>
      <trkpt lat="44.64052" lon="3.22192">
        <ele>1102</ele>
        <time>2019-05-30T14:30:25.347Z</time>
      </trkpt>
      <trkpt lat="44.64048" lon="3.22186">
        <ele>1102</ele>
        <time>2019-05-30T14:30:30.348Z</time>
      </trkpt>
      <trkpt lat="44.64044" lon="3.22181">
        <ele>1102</ele>
        <time>2019-05-30T14:30:35.350Z</time>
      </trkpt>
      <trkpt lat="44.64043" lon="3.22177">
        <ele>1102</ele>
        <time>2019-05-30T14:30:39.365Z</time>
      </trkpt>
      <trkpt lat="44.6404" lon="3.22174">
        <ele>1102</ele>
        <time>2019-05-30T14:30:44.340Z</time>
      </trkpt>
      <trkpt lat="44.64037" lon="3.22175">
        <ele>1102</ele>
        <time>2019-05-30T14:30:48.374Z</time>
      </trkpt>
      <trkpt lat="44.64034" lon="3.2218">
        <ele>1102</ele>
        <time>2019-05-30T14:30:53.355Z</time>
      </trkpt>
      <trkpt lat="44.64032" lon="3.22187">
        <ele>1100</ele>
        <time>2019-05-30T14:30:58.373Z</time>
      </trkpt>
      <trkpt lat="44.64028" lon="3.22194">
        <ele>1100</ele>
        <time>2019-05-30T14:31:03.385Z</time>
      </trkpt>
      <trkpt lat="44.64024" lon="3.22201">
        <ele>1100</ele>
        <time>2019-05-30T14:31:08.354Z</time>
      </trkpt>
      <trkpt lat="44.64022" lon="3.22206">
        <ele>1100</ele>
        <time>2019-05-30T14:31:12.378Z</time>
      </trkpt>
      <trkpt lat="44.64022" lon="3.22209">
        <ele>1099</ele>
        <time>2019-05-30T14:31:17.345Z</time>
      </trkpt>
      <trkpt lat="44.64021" lon="3.2221">
        <ele>1099</ele>
        <time>2019-05-30T14:31:22.353Z</time>
      </trkpt>
      <trkpt lat="44.64019" lon="3.22216">
        <ele>1099</ele>
        <time>2019-05-30T14:31:27.346Z</time>
      </trkpt>
      <trkpt lat="44.64017" lon="3.22223">
        <ele>1099</ele>
        <time>2019-05-30T14:31:32.344Z</time>
      </trkpt>
      <trkpt lat="44.64014" lon="3.2223">
        <ele>1099</ele>
        <time>2019-05-30T14:31:37.374Z</time>
      </trkpt>
      <trkpt lat="44.64012" lon="3.22235">
        <ele>1097</ele>
        <time>2019-05-30T14:31:42.347Z</time>
      </trkpt>
      <trkpt lat="44.6401" lon="3.22239">
        <ele>1097</ele>
        <time>2019-05-30T14:31:47.347Z</time>
      </trkpt>
      <trkpt lat="44.6401" lon="3.2224">
        <ele>1097</ele>
        <time>2019-05-30T14:31:51.347Z</time>
      </trkpt>
      <trkpt lat="44.64009" lon="3.22245">
        <ele>1097</ele>
        <time>2019-05-30T14:31:56.341Z</time>
      </trkpt>
      <trkpt lat="44.64007" lon="3.22249">
        <ele>1097</ele>
        <time>2019-05-30T14:32:01.346Z</time>
      </trkpt>
      <trkpt lat="44.64006" lon="3.22255">
        <ele>1097</ele>
        <time>2019-05-30T14:32:06.341Z</time>
      </trkpt>
      <trkpt lat="44.64004" lon="3.22261">
        <ele>1097</ele>
        <time>2019-05-30T14:32:10.341Z</time>
      </trkpt>
      <trkpt lat="44.64003" lon="3.22266">
        <ele>1095</ele>
        <time>2019-05-30T14:32:14.354Z</time>
      </trkpt>
      <trkpt lat="44.64001" lon="3.22273">
        <ele>1095</ele>
        <time>2019-05-30T14:32:19.344Z</time>
      </trkpt>
      <trkpt lat="44.63999" lon="3.2228">
        <ele>1095</ele>
        <time>2019-05-30T14:32:24.338Z</time>
      </trkpt>
      <trkpt lat="44.63996" lon="3.22286">
        <ele>1095</ele>
        <time>2019-05-30T14:32:29.343Z</time>
      </trkpt>
      <trkpt lat="44.63995" lon="3.22292">
        <ele>1095</ele>
        <time>2019-05-30T14:32:34.383Z</time>
      </trkpt>
      <trkpt lat="44.63992" lon="3.22298">
        <ele>1095</ele>
        <time>2019-05-30T14:32:38.393Z</time>
      </trkpt>
      <trkpt lat="44.63988" lon="3.22303">
        <ele>1095</ele>
        <time>2019-05-30T14:32:43.350Z</time>
      </trkpt>
      <trkpt lat="44.63986" lon="3.22308">
        <ele>1095</ele>
        <time>2019-05-30T14:32:48.347Z</time>
      </trkpt>
      <trkpt lat="44.63984" lon="3.22313">
        <ele>1095</ele>
        <time>2019-05-30T14:32:52.345Z</time>
      </trkpt>
      <trkpt lat="44.63981" lon="3.2232">
        <ele>1095</ele>
        <time>2019-05-30T14:32:57.358Z</time>
      </trkpt>
      <trkpt lat="44.6398" lon="3.22324">
        <ele>1095</ele>
        <time>2019-05-30T14:33:02.359Z</time>
      </trkpt>
      <trkpt lat="44.63978" lon="3.22327">
        <ele>1095</ele>
        <time>2019-05-30T14:33:07.340Z</time>
      </trkpt>
      <trkpt lat="44.63977" lon="3.22333">
        <ele>1095</ele>
        <time>2019-05-30T14:33:11.346Z</time>
      </trkpt>
      <trkpt lat="44.63977" lon="3.2234">
        <ele>1095</ele>
        <time>2019-05-30T14:33:16.350Z</time>
      </trkpt>
      <trkpt lat="44.63976" lon="3.22347">
        <ele>1097</ele>
        <time>2019-05-30T14:33:21.340Z</time>
      </trkpt>
      <trkpt lat="44.63974" lon="3.22351">
        <ele>1097</ele>
        <time>2019-05-30T14:33:25.350Z</time>
      </trkpt>
      <trkpt lat="44.63973" lon="3.22358">
        <ele>1097</ele>
        <time>2019-05-30T14:33:30.349Z</time>
      </trkpt>
      <trkpt lat="44.63972" lon="3.22365">
        <ele>1097</ele>
        <time>2019-05-30T14:33:35.356Z</time>
      </trkpt>
      <trkpt lat="44.63971" lon="3.22372">
        <ele>1097</ele>
        <time>2019-05-30T14:33:40.360Z</time>
      </trkpt>
      <trkpt lat="44.63971" lon="3.22379">
        <ele>1098</ele>
        <time>2019-05-30T14:33:45.341Z</time>
      </trkpt>
      <trkpt lat="44.63969" lon="3.22383">
        <ele>1098</ele>
        <time>2019-05-30T14:33:50.394Z</time>
      </trkpt>
      <trkpt lat="44.63968" lon="3.22391">
        <ele>1098</ele>
        <time>2019-05-30T14:33:55.340Z</time>
      </trkpt>
      <trkpt lat="44.63968" lon="3.224">
        <ele>1098</ele>
        <time>2019-05-30T14:34:00.359Z</time>
      </trkpt>
      <trkpt lat="44.63968" lon="3.22408">
        <ele>1099</ele>
        <time>2019-05-30T14:34:05.346Z</time>
      </trkpt>
      <trkpt lat="44.63967" lon="3.22416">
        <ele>1099</ele>
        <time>2019-05-30T14:34:10.345Z</time>
      </trkpt>
      <trkpt lat="44.63965" lon="3.22423">
        <ele>1099</ele>
        <time>2019-05-30T14:34:15.321Z</time>
      </trkpt>
      <trkpt lat="44.63964" lon="3.2243">
        <ele>1099</ele>
        <time>2019-05-30T14:34:19.322Z</time>
      </trkpt>
      <trkpt lat="44.63963" lon="3.22435">
        <ele>1100</ele>
        <time>2019-05-30T14:34:24.352Z</time>
      </trkpt>
      <trkpt lat="44.63961" lon="3.22442">
        <ele>1100</ele>
        <time>2019-05-30T14:34:29.359Z</time>
      </trkpt>
      <trkpt lat="44.6396" lon="3.22449">
        <ele>1100</ele>
        <time>2019-05-30T14:34:34.354Z</time>
      </trkpt>
      <trkpt lat="44.63958" lon="3.22454">
        <ele>1102</ele>
        <time>2019-05-30T14:34:39.351Z</time>
      </trkpt>
      <trkpt lat="44.63955" lon="3.2246">
        <ele>1102</ele>
        <time>2019-05-30T14:34:44.337Z</time>
      </trkpt>
      <trkpt lat="44.63953" lon="3.22465">
        <ele>1102</ele>
        <time>2019-05-30T14:34:48.360Z</time>
      </trkpt>
      <trkpt lat="44.63951" lon="3.2247">
        <ele>1102</ele>
        <time>2019-05-30T14:34:52.392Z</time>
      </trkpt>
      <trkpt lat="44.63949" lon="3.22477">
        <ele>1102</ele>
        <time>2019-05-30T14:34:57.374Z</time>
      </trkpt>
      <trkpt lat="44.63945" lon="3.22484">
        <ele>1102</ele>
        <time>2019-05-30T14:35:02.350Z</time>
      </trkpt>
      <trkpt lat="44.63942" lon="3.2249">
        <ele>1101</ele>
        <time>2019-05-30T14:35:06.349Z</time>
      </trkpt>
      <trkpt lat="44.63939" lon="3.22496">
        <ele>1101</ele>
        <time>2019-05-30T14:35:11.347Z</time>
      </trkpt>
      <trkpt lat="44.63935" lon="3.22501">
        <ele>1101</ele>
        <time>2019-05-30T14:35:16.354Z</time>
      </trkpt>
      <trkpt lat="44.63934" lon="3.22504">
        <ele>1101</ele>
        <time>2019-05-30T14:35:21.353Z</time>
      </trkpt>
      <trkpt lat="44.63931" lon="3.22511">
        <ele>1101</ele>
        <time>2019-05-30T14:35:26.345Z</time>
      </trkpt>
      <trkpt lat="44.63928" lon="3.22517">
        <ele>1103</ele>
        <time>2019-05-30T14:35:31.342Z</time>
      </trkpt>
      <trkpt lat="44.63925" lon="3.22524">
        <ele>1103</ele>
        <time>2019-05-30T14:35:36.351Z</time>
      </trkpt>
      <trkpt lat="44.63922" lon="3.2253">
        <ele>1103</ele>
        <time>2019-05-30T14:35:41.344Z</time>
      </trkpt>
      <trkpt lat="44.6392" lon="3.22535">
        <ele>1103</ele>
        <time>2019-05-30T14:35:46.344Z</time>
      </trkpt>
      <trkpt lat="44.63919" lon="3.22542">
        <ele>1104</ele>
        <time>2019-05-30T14:35:50.380Z</time>
      </trkpt>
      <trkpt lat="44.63917" lon="3.22549">
        <ele>1104</ele>
        <time>2019-05-30T14:35:55.327Z</time>
      </trkpt>
      <trkpt lat="44.63916" lon="3.22555">
        <ele>1104</ele>
        <time>2019-05-30T14:35:59.350Z</time>
      </trkpt>
      <trkpt lat="44.63914" lon="3.22561">
        <ele>1104</ele>
        <time>2019-05-30T14:36:03.373Z</time>
      </trkpt>
      <trkpt lat="44.63913" lon="3.22567">
        <ele>1104</ele>
        <time>2019-05-30T14:36:08.344Z</time>
      </trkpt>
      <trkpt lat="44.63911" lon="3.22576">
        <ele>1106</ele>
        <time>2019-05-30T14:36:13.341Z</time>
      </trkpt>
      <trkpt lat="44.6391" lon="3.22586">
        <ele>1106</ele>
        <time>2019-05-30T14:36:18.341Z</time>
      </trkpt>
      <trkpt lat="44.6391" lon="3.22594">
        <ele>1106</ele>
        <time>2019-05-30T14:36:22.349Z</time>
      </trkpt>
      <trkpt lat="44.63909" lon="3.22603">
        <ele>1108</ele>
        <time>2019-05-30T14:36:27.344Z</time>
      </trkpt>
      <trkpt lat="44.63908" lon="3.22611">
        <ele>1108</ele>
        <time>2019-05-30T14:36:31.354Z</time>
      </trkpt>
      <trkpt lat="44.63907" lon="3.22617">
        <ele>1108</ele>
        <time>2019-05-30T14:36:36.351Z</time>
      </trkpt>
      <trkpt lat="44.63907" lon="3.22622">
        <ele>1108</ele>
        <time>2019-05-30T14:36:40.354Z</time>
      </trkpt>
      <trkpt lat="44.63905" lon="3.22629">
        <ele>1109</ele>
        <time>2019-05-30T14:37:07.373Z</time>
      </trkpt>
      <trkpt lat="44.63904" lon="3.22631">
        <ele>1109</ele>
        <time>2019-05-30T14:37:12.354Z</time>
      </trkpt>
      <trkpt lat="44.63904" lon="3.22632">
        <ele>1109</ele>
        <time>2019-05-30T14:37:22.350Z</time>
      </trkpt>
      <trkpt lat="44.63902" lon="3.22639">
        <ele>1109</ele>
        <time>2019-05-30T14:37:27.352Z</time>
      </trkpt>
      <trkpt lat="44.63901" lon="3.22646">
        <ele>1109</ele>
        <time>2019-05-30T14:37:32.378Z</time>
      </trkpt>
      <trkpt lat="44.63901" lon="3.22655">
        <ele>1108</ele>
        <time>2019-05-30T14:37:37.354Z</time>
      </trkpt>
      <trkpt lat="44.63898" lon="3.22662">
        <ele>1108</ele>
        <time>2019-05-30T14:37:42.376Z</time>
      </trkpt>
      <trkpt lat="44.63896" lon="3.22668">
        <ele>1108</ele>
        <time>2019-05-30T14:37:47.363Z</time>
      </trkpt>
      <trkpt lat="44.63896" lon="3.22674">
        <ele>1108</ele>
        <time>2019-05-30T14:37:52.348Z</time>
      </trkpt>
      <trkpt lat="44.63895" lon="3.22679">
        <ele>1108</ele>
        <time>2019-05-30T14:37:56.357Z</time>
      </trkpt>
      <trkpt lat="44.63893" lon="3.22687">
        <ele>1108</ele>
        <time>2019-05-30T14:38:01.341Z</time>
      </trkpt>
      <trkpt lat="44.63893" lon="3.22695">
        <ele>1108</ele>
        <time>2019-05-30T14:38:05.393Z</time>
      </trkpt>
      <trkpt lat="44.63893" lon="3.22704">
        <ele>1108</ele>
        <time>2019-05-30T14:38:10.345Z</time>
      </trkpt>
      <trkpt lat="44.63893" lon="3.22713">
        <ele>1107</ele>
        <time>2019-05-30T14:38:15.349Z</time>
      </trkpt>
      <trkpt lat="44.63894" lon="3.22721">
        <ele>1107</ele>
        <time>2019-05-30T14:38:20.341Z</time>
      </trkpt>
      <trkpt lat="44.63895" lon="3.22727">
        <ele>1107</ele>
        <time>2019-05-30T14:38:24.345Z</time>
      </trkpt>
      <trkpt lat="44.63895" lon="3.22734">
        <ele>1107</ele>
        <time>2019-05-30T14:38:29.346Z</time>
      </trkpt>
      <trkpt lat="44.63894" lon="3.22739">
        <ele>1107</ele>
        <time>2019-05-30T14:38:33.352Z</time>
      </trkpt>
      <trkpt lat="44.63893" lon="3.22742">
        <ele>1107</ele>
        <time>2019-05-30T14:38:38.344Z</time>
      </trkpt>
      <trkpt lat="44.63893" lon="3.22746">
        <ele>1107</ele>
        <time>2019-05-30T14:38:48.349Z</time>
      </trkpt>
      <trkpt lat="44.63892" lon="3.22753">
        <ele>1107</ele>
        <time>2019-05-30T14:38:53.338Z</time>
      </trkpt>
      <trkpt lat="44.63889" lon="3.22758">
        <ele>1107</ele>
        <time>2019-05-30T14:38:58.342Z</time>
      </trkpt>
      <trkpt lat="44.63889" lon="3.22764">
        <ele>1106</ele>
        <time>2019-05-30T14:39:02.377Z</time>
      </trkpt>
      <trkpt lat="44.63888" lon="3.2277">
        <ele>1106</ele>
        <time>2019-05-30T14:39:07.347Z</time>
      </trkpt>
      <trkpt lat="44.63887" lon="3.22775">
        <ele>1106</ele>
        <time>2019-05-30T14:39:12.375Z</time>
      </trkpt>
      <trkpt lat="44.63886" lon="3.22776">
        <ele>1106</ele>
        <time>2019-05-30T14:39:17.345Z</time>
      </trkpt>
      <trkpt lat="44.63885" lon="3.22778">
        <ele>1106</ele>
        <time>2019-05-30T14:39:25.362Z</time>
      </trkpt>
      <trkpt lat="44.63885" lon="3.22785">
        <ele>1106</ele>
        <time>2019-05-30T14:39:30.345Z</time>
      </trkpt>
      <trkpt lat="44.63883" lon="3.22789">
        <ele>1106</ele>
        <time>2019-05-30T14:39:35.347Z</time>
      </trkpt>
      <trkpt lat="44.63882" lon="3.22793">
        <ele>1107</ele>
        <time>2019-05-30T14:39:40.340Z</time>
      </trkpt>
      <trkpt lat="44.63882" lon="3.22797">
        <ele>1107</ele>
        <time>2019-05-30T14:39:45.341Z</time>
      </trkpt>
      <trkpt lat="44.63881" lon="3.22801">
        <ele>1107</ele>
        <time>2019-05-30T14:39:50.344Z</time>
      </trkpt>
      <trkpt lat="44.63879" lon="3.22806">
        <ele>1107</ele>
        <time>2019-05-30T14:39:54.346Z</time>
      </trkpt>
      <trkpt lat="44.63877" lon="3.22811">
        <ele>1107</ele>
        <time>2019-05-30T14:39:59.344Z</time>
      </trkpt>
      <trkpt lat="44.63874" lon="3.22817">
        <ele>1109</ele>
        <time>2019-05-30T14:40:04.347Z</time>
      </trkpt>
      <trkpt lat="44.63873" lon="3.22822">
        <ele>1109</ele>
        <time>2019-05-30T14:40:09.349Z</time>
      </trkpt>
      <trkpt lat="44.63872" lon="3.22827">
        <ele>1109</ele>
        <time>2019-05-30T14:40:14.348Z</time>
      </trkpt>
      <trkpt lat="44.6387" lon="3.22833">
        <ele>1109</ele>
        <time>2019-05-30T14:40:19.362Z</time>
      </trkpt>
      <trkpt lat="44.6387" lon="3.22834">
        <ele>1109</ele>
        <time>2019-05-30T14:40:24.342Z</time>
      </trkpt>
      <trkpt lat="44.63867" lon="3.2284">
        <ele>1109</ele>
        <time>2019-05-30T14:40:28.382Z</time>
      </trkpt>
      <trkpt lat="44.63865" lon="3.22846">
        <ele>1109</ele>
        <time>2019-05-30T14:40:33.340Z</time>
      </trkpt>
      <trkpt lat="44.63864" lon="3.22849">
        <ele>1109</ele>
        <time>2019-05-30T14:40:37.358Z</time>
      </trkpt>
      <trkpt lat="44.63863" lon="3.2285">
        <ele>1109</ele>
        <time>2019-05-30T14:40:42.373Z</time>
      </trkpt>
      <trkpt lat="44.63861" lon="3.22856">
        <ele>1109</ele>
        <time>2019-05-30T14:40:47.355Z</time>
      </trkpt>
      <trkpt lat="44.63859" lon="3.22859">
        <ele>1109</ele>
        <time>2019-05-30T14:40:52.350Z</time>
      </trkpt>
      <trkpt lat="44.63856" lon="3.22863">
        <ele>1109</ele>
        <time>2019-05-30T14:40:56.357Z</time>
      </trkpt>
      <trkpt lat="44.63852" lon="3.22867">
        <ele>1109</ele>
        <time>2019-05-30T14:41:01.375Z</time>
      </trkpt>
      <trkpt lat="44.63849" lon="3.22871">
        <ele>1109</ele>
        <time>2019-05-30T14:41:06.375Z</time>
      </trkpt>
      <trkpt lat="44.63846" lon="3.22874">
        <ele>1110</ele>
        <time>2019-05-30T14:41:10.380Z</time>
      </trkpt>
      <trkpt lat="44.63844" lon="3.22879">
        <ele>1109</ele>
        <time>2019-05-30T14:41:15.343Z</time>
      </trkpt>
      <trkpt lat="44.63841" lon="3.22885">
        <ele>1109</ele>
        <time>2019-05-30T14:41:20.354Z</time>
      </trkpt>
      <trkpt lat="44.63838" lon="3.22891">
        <ele>1109</ele>
        <time>2019-05-30T14:41:25.353Z</time>
      </trkpt>
      <trkpt lat="44.63836" lon="3.22896">
        <ele>1109</ele>
        <time>2019-05-30T14:41:29.389Z</time>
      </trkpt>
      <trkpt lat="44.63832" lon="3.22902">
        <ele>1109</ele>
        <time>2019-05-30T14:41:34.344Z</time>
      </trkpt>
      <trkpt lat="44.63829" lon="3.22908">
        <ele>1107</ele>
        <time>2019-05-30T14:41:39.343Z</time>
      </trkpt>
      <trkpt lat="44.63825" lon="3.22912">
        <ele>1107</ele>
        <time>2019-05-30T14:41:44.373Z</time>
      </trkpt>
      <trkpt lat="44.63822" lon="3.22917">
        <ele>1107</ele>
        <time>2019-05-30T14:41:49.348Z</time>
      </trkpt>
      <trkpt lat="44.63819" lon="3.22923">
        <ele>1107</ele>
        <time>2019-05-30T14:41:54.345Z</time>
      </trkpt>
      <trkpt lat="44.63816" lon="3.22929">
        <ele>1107</ele>
        <time>2019-05-30T14:41:59.346Z</time>
      </trkpt>
      <trkpt lat="44.63813" lon="3.22934">
        <ele>1105</ele>
        <time>2019-05-30T14:42:04.345Z</time>
      </trkpt>
      <trkpt lat="44.63811" lon="3.22938">
        <ele>1105</ele>
        <time>2019-05-30T14:42:08.351Z</time>
      </trkpt>
      <trkpt lat="44.63808" lon="3.22944">
        <ele>1105</ele>
        <time>2019-05-30T14:42:13.344Z</time>
      </trkpt>
      <trkpt lat="44.63805" lon="3.22947">
        <ele>1105</ele>
        <time>2019-05-30T14:42:17.361Z</time>
      </trkpt>
      <trkpt lat="44.63801" lon="3.22951">
        <ele>1105</ele>
        <time>2019-05-30T14:42:22.372Z</time>
      </trkpt>
      <trkpt lat="44.63798" lon="3.22956">
        <ele>1105</ele>
        <time>2019-05-30T14:42:27.350Z</time>
      </trkpt>
      <trkpt lat="44.63795" lon="3.22961">
        <ele>1102</ele>
        <time>2019-05-30T14:42:32.368Z</time>
      </trkpt>
      <trkpt lat="44.63792" lon="3.22967">
        <ele>1102</ele>
        <time>2019-05-30T14:42:37.345Z</time>
      </trkpt>
      <trkpt lat="44.63789" lon="3.22972">
        <ele>1103</ele>
        <time>2019-05-30T14:42:42.355Z</time>
      </trkpt>
      <trkpt lat="44.63786" lon="3.22976">
        <ele>1103</ele>
        <time>2019-05-30T14:42:47.346Z</time>
      </trkpt>
      <trkpt lat="44.63782" lon="3.22979">
        <ele>1103</ele>
        <time>2019-05-30T14:42:52.379Z</time>
      </trkpt>
      <trkpt lat="44.63779" lon="3.22982">
        <ele>1103</ele>
        <time>2019-05-30T14:42:57.354Z</time>
      </trkpt>
      <trkpt lat="44.63775" lon="3.22984">
        <ele>1103</ele>
        <time>2019-05-30T14:43:01.376Z</time>
      </trkpt>
      <trkpt lat="44.63769" lon="3.22988">
        <ele>1100</ele>
        <time>2019-05-30T14:43:06.348Z</time>
      </trkpt>
      <trkpt lat="44.63765" lon="3.2299">
        <ele>1100</ele>
        <time>2019-05-30T14:43:10.354Z</time>
      </trkpt>
      <trkpt lat="44.63762" lon="3.22991">
        <ele>1102</ele>
        <time>2019-05-30T14:43:14.375Z</time>
      </trkpt>
      <trkpt lat="44.63758" lon="3.22995">
        <ele>1102</ele>
        <time>2019-05-30T14:43:19.344Z</time>
      </trkpt>
      <trkpt lat="44.63754" lon="3.23">
        <ele>1102</ele>
        <time>2019-05-30T14:43:24.379Z</time>
      </trkpt>
      <trkpt lat="44.6375" lon="3.23005">
        <ele>1102</ele>
        <time>2019-05-30T14:43:29.350Z</time>
      </trkpt>
      <trkpt lat="44.63747" lon="3.23008">
        <ele>1102</ele>
        <time>2019-05-30T14:43:33.365Z</time>
      </trkpt>
      <trkpt lat="44.63743" lon="3.23012">
        <ele>1102</ele>
        <time>2019-05-30T14:43:38.342Z</time>
      </trkpt>
      <trkpt lat="44.6374" lon="3.23016">
        <ele>1099</ele>
        <time>2019-05-30T14:43:42.347Z</time>
      </trkpt>
      <trkpt lat="44.63737" lon="3.23022">
        <ele>1099</ele>
        <time>2019-05-30T14:43:47.345Z</time>
      </trkpt>
      <trkpt lat="44.63733" lon="3.23028">
        <ele>1101</ele>
        <time>2019-05-30T14:43:52.344Z</time>
      </trkpt>
      <trkpt lat="44.63731" lon="3.23034">
        <ele>1101</ele>
        <time>2019-05-30T14:43:56.377Z</time>
      </trkpt>
      <trkpt lat="44.63729" lon="3.23042">
        <ele>1098</ele>
        <time>2019-05-30T14:44:01.343Z</time>
      </trkpt>
      <trkpt lat="44.63728" lon="3.23049">
        <ele>1098</ele>
        <time>2019-05-30T14:44:06.344Z</time>
      </trkpt>
      <trkpt lat="44.63727" lon="3.23056">
        <ele>1098</ele>
        <time>2019-05-30T14:44:11.348Z</time>
      </trkpt>
      <trkpt lat="44.63725" lon="3.23062">
        <ele>1098</ele>
        <time>2019-05-30T14:44:15.361Z</time>
      </trkpt>
      <trkpt lat="44.63725" lon="3.23069">
        <ele>1098</ele>
        <time>2019-05-30T14:44:19.378Z</time>
      </trkpt>
      <trkpt lat="44.63723" lon="3.23076">
        <ele>1097</ele>
        <time>2019-05-30T14:44:24.346Z</time>
      </trkpt>
      <trkpt lat="44.63723" lon="3.23082">
        <ele>1097</ele>
        <time>2019-05-30T14:44:28.365Z</time>
      </trkpt>
      <trkpt lat="44.63722" lon="3.23089">
        <ele>1097</ele>
        <time>2019-05-30T14:44:33.344Z</time>
      </trkpt>
      <trkpt lat="44.6372" lon="3.23096">
        <ele>1097</ele>
        <time>2019-05-30T14:44:38.401Z</time>
      </trkpt>
      <trkpt lat="44.63719" lon="3.23103">
        <ele>1097</ele>
        <time>2019-05-30T14:44:43.347Z</time>
      </trkpt>
      <trkpt lat="44.63718" lon="3.23108">
        <ele>1097</ele>
        <time>2019-05-30T14:44:47.384Z</time>
      </trkpt>
      <trkpt lat="44.63717" lon="3.23115">
        <ele>1097</ele>
        <time>2019-05-30T14:44:52.350Z</time>
      </trkpt>
      <trkpt lat="44.63716" lon="3.23121">
        <ele>1097</ele>
        <time>2019-05-30T14:44:56.360Z</time>
      </trkpt>
      <trkpt lat="44.63715" lon="3.23129">
        <ele>1096</ele>
        <time>2019-05-30T14:45:01.364Z</time>
      </trkpt>
      <trkpt lat="44.63715" lon="3.23136">
        <ele>1096</ele>
        <time>2019-05-30T14:45:06.342Z</time>
      </trkpt>
      <trkpt lat="44.63714" lon="3.23142">
        <ele>1096</ele>
        <time>2019-05-30T14:45:10.376Z</time>
      </trkpt>
      <trkpt lat="44.63714" lon="3.23148">
        <ele>1096</ele>
        <time>2019-05-30T14:45:15.345Z</time>
      </trkpt>
      <trkpt lat="44.63713" lon="3.23155">
        <ele>1095</ele>
        <time>2019-05-30T14:45:20.341Z</time>
      </trkpt>
      <trkpt lat="44.63713" lon="3.23159">
        <ele>1095</ele>
        <time>2019-05-30T14:45:25.341Z</time>
      </trkpt>
      <trkpt lat="44.63712" lon="3.23164">
        <ele>1095</ele>
        <time>2019-05-30T14:45:29.374Z</time>
      </trkpt>
      <trkpt lat="44.63711" lon="3.23171">
        <ele>1095</ele>
        <time>2019-05-30T14:45:34.376Z</time>
      </trkpt>
      <trkpt lat="44.6371" lon="3.23178">
        <ele>1095</ele>
        <time>2019-05-30T14:45:39.355Z</time>
      </trkpt>
      <trkpt lat="44.6371" lon="3.23186">
        <ele>1093</ele>
        <time>2019-05-30T14:45:44.370Z</time>
      </trkpt>
      <trkpt lat="44.63709" lon="3.23194">
        <ele>1093</ele>
        <time>2019-05-30T14:45:49.340Z</time>
      </trkpt>
      <trkpt lat="44.63708" lon="3.23199">
        <ele>1095</ele>
        <time>2019-05-30T14:45:53.376Z</time>
      </trkpt>
      <trkpt lat="44.63707" lon="3.23207">
        <ele>1095</ele>
        <time>2019-05-30T14:45:58.346Z</time>
      </trkpt>
      <trkpt lat="44.63707" lon="3.23212">
        <ele>1093</ele>
        <time>2019-05-30T14:46:02.371Z</time>
      </trkpt>
      <trkpt lat="44.63707" lon="3.2322">
        <ele>1093</ele>
        <time>2019-05-30T14:46:07.358Z</time>
      </trkpt>
      <trkpt lat="44.63706" lon="3.23227">
        <ele>1093</ele>
        <time>2019-05-30T14:46:12.351Z</time>
      </trkpt>
      <trkpt lat="44.63704" lon="3.23235">
        <ele>1093</ele>
        <time>2019-05-30T14:46:17.347Z</time>
      </trkpt>
      <trkpt lat="44.63703" lon="3.23243">
        <ele>1092</ele>
        <time>2019-05-30T14:46:22.344Z</time>
      </trkpt>
      <trkpt lat="44.63701" lon="3.23249">
        <ele>1092</ele>
        <time>2019-05-30T14:46:27.348Z</time>
      </trkpt>
      <trkpt lat="44.637" lon="3.23254">
        <ele>1092</ele>
        <time>2019-05-30T14:46:31.375Z</time>
      </trkpt>
      <trkpt lat="44.63699" lon="3.23262">
        <ele>1092</ele>
        <time>2019-05-30T14:46:36.345Z</time>
      </trkpt>
      <trkpt lat="44.637" lon="3.23266">
        <ele>1092</ele>
        <time>2019-05-30T14:46:45.342Z</time>
      </trkpt>
      <trkpt lat="44.637" lon="3.23268">
        <ele>1092</ele>
        <time>2019-05-30T14:46:55.345Z</time>
      </trkpt>
      <trkpt lat="44.63701" lon="3.23273">
        <ele>1092</ele>
        <time>2019-05-30T14:46:59.369Z</time>
      </trkpt>
      <trkpt lat="44.63705" lon="3.23276">
        <ele>1092</ele>
        <time>2019-05-30T14:47:04.347Z</time>
      </trkpt>
      <trkpt lat="44.63709" lon="3.23276">
        <ele>1091</ele>
        <time>2019-05-30T14:47:09.348Z</time>
      </trkpt>
      <trkpt lat="44.63715" lon="3.23273">
        <ele>1091</ele>
        <time>2019-05-30T14:47:14.347Z</time>
      </trkpt>
      <trkpt lat="44.6372" lon="3.23272">
        <ele>1091</ele>
        <time>2019-05-30T14:47:19.344Z</time>
      </trkpt>
      <trkpt lat="44.63726" lon="3.2327">
        <ele>1091</ele>
        <time>2019-05-30T14:47:24.329Z</time>
      </trkpt>
      <trkpt lat="44.6373" lon="3.2327">
        <ele>1091</ele>
        <time>2019-05-30T14:47:30.349Z</time>
      </trkpt>
    </trkseg>
  </trk>
</gpx>